PORTS® Data Listing: 9075099 De Tour Village, MI

CO-OPS RAW PORTS DATA

************************      PRELIMINARY DATA      ************************** 

     THIS RAW DATA HAS NOT BEEN SUBJECT TO THE NATIONAL OCEAN SERVICE'S        
     QUALITY CONTROL OR QUALITY ASSURANCE PROCEDURES AND DOES NOT MEET         
     THE CRITERIA AND STANDARDS OF OFFICIAL NATIONAL OCEAN SERVICE             
     DATA.  IT IS RELEASED FOR LIMITED PUBLIC USE AS PRELIMINARY DATA TO       
     BE USED ONLY WITH APPROPRIATE CAUTION.                                    

************************      PRELIMINARY DATA      ************************** 


       CD   -   Calendar date
       T    -   Time
       TZ   -   Timezone
       SW   -   Observed secondary water level (inches IGLD 1985)
       PW   -   Observed primary water level (inches IGLD 1985)
       WS   -   Wind speed (knots)
       WD   -   Wind direction (degrees true)
       WG   -   Wind gust (knots)
       AT   -   Air temperature (degrees farenheit)
       WT   -   Water temperature (degrees farenheit)
       AP   -   Air pressure (millibars)
       SA   -   Salinty (PSU - Practical Salinity Units)
       SG   -   Specific gravity
       RH   -   Relative humidity
       AG   -   Air gap (feet)
       VI   -   Visibility (nautical miles)

       ** NOTE **
       A variable that has its data fields filled with "9"s, indicates that
       data was not collected for that sample period.
       **********


STATION NAME: De Tour Village (9075099)
****************************************************************************************************
    CD       T    TZ    SW     PW    WS   WD   WG    AT    WT    AP    SA    SG     RH    AG   VI
****************************************************************************************************
2019/10/19 15:18 EDT   49.09  49.13   19  138   21  50.9  52.7 1010.2 -9.9 -9.999  84.2 -99.99 -9.99
2019/10/19 15:24 EDT   49.29  49.33   18  142   25  51.1  52.7 1010.1 -9.9 -9.999  88.1 -99.99 -9.99
2019/10/19 15:30 EDT   49.33  49.37   16  143   20  51.4  52.7 1010.0 -9.9 -9.999  89.1 -99.99 -9.99
2019/10/19 15:36 EDT   49.17  49.25   20  142   23  51.3  52.7 1009.9 -9.9 -9.999  87.4 -99.99 -9.99
2019/10/19 15:42 EDT   49.06  49.13   18  143   27  51.1  52.7 1009.8 -9.9 -9.999  89.3 -99.99 -9.99
2019/10/19 15:48 EDT   49.02  49.06   22  142   24  50.9  52.7 1009.9 -9.9 -9.999  89.6 -99.99 -9.99
2019/10/19 15:54 EDT   48.94  49.02   20  148   24  51.1  52.7 1009.9 -9.9 -9.999  90.3 -99.99 -9.99
2019/10/19 16:00 EDT   49.09  49.17   20  140   25  51.1  52.7 1009.8 -9.9 -9.999  90.5 -99.99 -9.99
2019/10/19 16:06 EDT   49.02  49.06   18  137   24  51.4  52.7 1009.7 -9.9 -9.999  90.2 -99.99 -9.99
2019/10/19 16:12 EDT   49.17  49.21   20  143   24  50.9  52.7 1009.7 -9.9 -9.999  91.0 -99.99 -9.99
2019/10/19 16:18 EDT   49.02  49.09   21  142   26  50.9  52.7 1009.5 -9.9 -9.999  91.2 -99.99 -9.99
2019/10/19 16:24 EDT   48.86  48.90   22  146   24  50.9  52.7 1009.6 -9.9 -9.999  91.8 -99.99 -9.99
2019/10/19 16:30 EDT   49.41  49.49   22  146   26  50.9  52.7 1009.6 -9.9 -9.999  91.2 -99.99 -9.99
2019/10/19 16:36 EDT   49.25  49.33   19  144   25  51.1  52.7 1009.6 -9.9 -9.999  92.3 -99.99 -9.99
2019/10/19 16:42 EDT   49.21  49.29   18  145   23  51.1  52.7 1009.7 -9.9 -9.999  93.0 -99.99 -9.99
2019/10/19 16:48 EDT   49.21  49.25   18  144   22  50.7  52.7 1009.7 -9.9 -9.999  93.5 -99.99 -9.99
2019/10/19 16:54 EDT   49.17  49.21   20  145   24  50.7  52.7 1009.6 -9.9 -9.999  94.2 -99.99 -9.99
2019/10/19 17:00 EDT   49.02  49.09   19  145   24  50.9  52.7 1009.5 -9.9 -9.999  94.9 -99.99 -9.99
2019/10/19 17:06 EDT   48.98  49.02   18  148   24  50.7  52.7 1009.4 -9.9 -9.999  96.1 -99.99 -9.99
2019/10/19 17:12 EDT   49.45  49.49   16  147   22  50.9  52.7 1009.4 -9.9 -9.999  95.9 -99.99 -9.99
2019/10/19 17:18 EDT   49.29  49.37   18  146   23  50.9  52.7 1009.3 -9.9 -9.999  95.7 -99.99 -9.99
2019/10/19 17:24 EDT   49.37  49.41   19  149   23  51.1  52.7 1009.2 -9.9 -9.999  95.5 -99.99 -9.99
2019/10/19 17:30 EDT   49.21  49.25   20  150   25  51.1  52.7 1009.3 -9.9 -9.999  95.3 -99.99 -9.99
2019/10/19 17:36 EDT   49.06  49.13   19  145   23  51.1  52.7 1009.1 -9.9 -9.999  96.0 -99.99 -9.99
2019/10/19 17:42 EDT   48.98  49.06   20  145   24  51.1  52.7 1009.2 -9.9 -9.999  96.1 -99.99 -9.99
2019/10/19 17:48 EDT   48.90  48.94   18  148   26  51.1  52.7 1009.2 -9.9 -9.999  95.5 -99.99 -9.99
2019/10/19 17:54 EDT   48.90  48.98   16  149   24  51.1  52.7 1009.2 -9.9 -9.999  96.3 -99.99 -9.99
2019/10/19 18:00 EDT   48.90  48.98   18  150   23  51.1  52.7 1009.2 -9.9 -9.999  95.3 -99.99 -9.99
2019/10/19 18:06 EDT   48.94  48.98   17  149   24  51.1  52.7 1009.3 -9.9 -9.999  95.9 -99.99 -9.99
2019/10/19 18:12 EDT   48.90  48.94   16  146   22  51.1  52.7 1009.3 -9.9 -9.999  96.0 -99.99 -9.99
2019/10/19 18:18 EDT   48.66  48.74   17  149   21  51.1  52.7 1009.3 -9.9 -9.999  96.2 -99.99 -9.99
2019/10/19 18:24 EDT   48.74  48.78   19  149   23  51.3  52.7 1009.2 -9.9 -9.999  95.3 -99.99 -9.99
2019/10/19 18:30 EDT   48.70  48.78   17  149   25  51.3  52.7 1009.2 -9.9 -9.999  95.7 -99.99 -9.99
2019/10/19 18:36 EDT   48.74  48.78   17  149   21  51.3  52.7 1009.1 -9.9 -9.999  96.2 -99.99 -9.99
2019/10/19 18:42 EDT   48.78  48.82   19  151   22  51.3  52.7 1009.1 -9.9 -9.999  95.6 -99.99 -9.99
2019/10/19 18:48 EDT   48.54  48.62   17  151   24  51.3  52.7 1009.0 -9.9 -9.999  96.2 -99.99 -9.99
2019/10/19 18:54 EDT   48.50  48.54   17  147   24  51.1  52.7 1009.0 -9.9 -9.999  97.2 -99.99 -9.99
2019/10/19 19:00 EDT   48.58  48.66   18  148   22  51.1  52.7 1008.9 -9.9 -9.999  97.3 -99.99 -9.99
2019/10/19 19:06 EDT   48.43  48.46   17  148   24  51.1  52.7 1008.9 -9.9 -9.999  98.2 -99.99 -9.99
2019/10/19 19:12 EDT   48.46  48.54   18  149   22  51.1  52.7 1008.9 -9.9 -9.999  98.5 -99.99 -9.99
2019/10/19 19:18 EDT   48.15  48.23   16  151   21  51.1  52.7 1008.9 -9.9 -9.999  98.4 -99.99 -9.99
2019/10/19 19:24 EDT   48.15  48.23   17  146   21  51.1  52.7 1008.8 -9.9 -9.999  98.2 -99.99 -9.99
2019/10/19 19:30 EDT   48.31  48.39   17  150   22  51.1  52.7 1008.9 -9.9 -9.999  99.1 -99.99 -9.99
2019/10/19 19:36 EDT   48.62  48.66   17  149   22  51.1  52.7 1008.9 -9.9 -9.999  99.3 -99.99 -9.99
2019/10/19 19:42 EDT   49.02  49.06   16  149   21  51.3  52.7 1009.1 -9.9 -9.999  99.5 -99.99 -9.99
2019/10/19 19:48 EDT   48.86  48.90   16  156   19  51.3  52.7 1009.0 -9.9 -9.999  98.8 -99.99 -9.99
2019/10/19 19:54 EDT   48.54  48.62   18  153   21  51.4  52.7 1009.0 -9.9 -9.999  97.7 -99.99 -9.99
2019/10/19 20:00 EDT   48.35  48.39   18  154   21  51.4  52.7 1009.0 -9.9 -9.999  97.3 -99.99 -9.99
2019/10/19 20:06 EDT   48.43  48.50   18  154   21  51.4  52.7 1009.1 -9.9 -9.999  97.5 -99.99 -9.99
2019/10/19 20:12 EDT   48.78  48.82   17  152   20  51.4  52.7 1009.0 -9.9 -9.999  98.3 -99.99 -9.99
2019/10/19 20:18 EDT   48.70  48.74   16  155   19  51.4  52.7 1009.0 -9.9 -9.999  98.1 -99.99 -9.99
2019/10/19 20:24 EDT   48.62  48.70   17  153   19  51.6  52.7 1008.9 -9.9 -9.999  97.5 -99.99 -9.99
2019/10/19 20:30 EDT   48.58  48.66   17  153   21  51.6  52.7 1008.9 -9.9 -9.999  97.4 -99.99 -9.99
2019/10/19 20:36 EDT   48.74  48.78   16  153   21  51.6  52.7 1008.8 -9.9 -9.999  97.5 -99.99 -9.99
2019/10/19 20:42 EDT   48.74  48.82   17  153   21  51.6  52.7 1008.9 -9.9 -9.999  97.4 -99.99 -9.99
2019/10/19 20:48 EDT   48.86  48.94   18  153   22  51.8  52.7 1008.9 -9.9 -9.999  96.5 -99.99 -9.99
2019/10/19 20:54 EDT   48.98  49.02   18  152   21  51.8  52.7 1008.8 -9.9 -9.999  96.6 -99.99 -9.99
2019/10/19 21:00 EDT   48.90  48.94   17  155   20  51.8  52.7 1008.8 -9.9 -9.999  96.8 -99.99 -9.99
2019/10/19 21:06 EDT   48.74  48.78   17  155   20  51.8  52.7 1008.8 -9.9 -9.999  96.9 -99.99 -9.99
2019/10/19 21:12 EDT   48.98  49.06   15  153   19  51.8  52.7 1008.8 -9.9 -9.999  97.4 -99.99 -9.99
2019/10/19 21:18 EDT   48.70  48.78   15  155   18  51.8  52.7 1008.8 -9.9 -9.999  97.7 -99.99 -9.99
2019/10/19 21:24 EDT   48.78  48.82   16  155   19  51.8  52.7 1008.9 -9.9 -9.999  97.8 -99.99 -9.99
2019/10/19 21:30 EDT   48.66  48.70   15  155   19  51.8  52.7 1008.8 -9.9 -9.999  98.3 -99.99 -9.99
2019/10/19 21:36 EDT   48.86  48.90   16  158   19  51.8  52.7 1008.8 -9.9 -9.999  98.5 -99.99 -9.99
2019/10/19 21:42 EDT   49.17  49.25   15  159   18  51.8  52.7 1008.9 -9.9 -9.999  98.9 -99.99 -9.99
2019/10/19 21:48 EDT   49.09  49.17   16  158   19  51.8  52.7 1008.8 -9.9 -9.999  98.4 -99.99 -9.99
2019/10/19 21:54 EDT   49.25  49.29   16  157   19  52.0  52.7 1008.8 -9.9 -9.999  97.3 -99.99 -9.99
2019/10/19 22:00 EDT   49.06  49.09   15  159   18  52.0  52.7 1008.8 -9.9 -9.999  97.1 -99.99 -9.99
2019/10/19 22:06 EDT   49.06  49.09   16  161   19  52.0  52.7 1008.8 -9.9 -9.999  95.8 -99.99 -9.99
2019/10/19 22:12 EDT   49.25  49.33   16  161   20  52.2  52.7 1008.7 -9.9 -9.999  95.2 -99.99 -9.99
2019/10/19 22:18 EDT   49.41  49.45   16  158   19  52.0  52.7 1008.6 -9.9 -9.999  95.2 -99.99 -9.99
2019/10/19 22:24 EDT   49.53  49.57   17  158   20  52.0  52.7 1008.5 -9.9 -9.999  95.5 -99.99 -9.99
2019/10/19 22:30 EDT   49.21  49.29   16  156   18  51.8  52.7 1008.5 -9.9 -9.999  96.7 -99.99 -9.99
2019/10/19 22:36 EDT   49.61  49.65   17  155   19  51.8  52.7 1008.4 -9.9 -9.999  96.4 -99.99 -9.99
2019/10/19 22:42 EDT   49.29  49.33   16  153   18  51.6  52.7 1008.4 -9.9 -9.999  97.3 -99.99 -9.99
2019/10/19 22:48 EDT   49.45  49.49   15  153   19  51.6  52.7 1008.3 -9.9 -9.999  96.6 -99.99 -9.99
2019/10/19 22:54 EDT   49.69  49.76   15  160   18  51.8  52.7 1008.3 -9.9 -9.999  95.6 -99.99 -9.99
2019/10/19 23:00 EDT   48.86  48.94   15  159   18  51.8  52.7 1008.3 -9.9 -9.999  95.6 -99.99 -9.99
2019/10/19 23:06 EDT   48.90  48.98   14  156   18  51.8  52.7 1008.4 -9.9 -9.999  95.5 -99.99 -9.99
2019/10/19 23:12 EDT   49.17  49.25   15  160   18  51.8  52.7 1008.4 -9.9 -9.999  95.7 -99.99 -9.99
2019/10/19 23:18 EDT   49.02  49.06   15  156   18  51.8  52.7 1008.4 -9.9 -9.999  95.9 -99.99 -9.99
2019/10/19 23:24 EDT   49.29  49.33   14  155   18  51.8  52.7 1008.4 -9.9 -9.999  95.5 -99.99 -9.99
2019/10/19 23:30 EDT   49.17  49.21   15  155   18  52.0  52.7 1008.3 -9.9 -9.999  94.0 -99.99 -9.99
2019/10/19 23:36 EDT   48.86  48.90   15  156   17  52.0  52.7 1008.4 -9.9 -9.999  94.3 -99.99 -9.99
2019/10/19 23:42 EDT   49.06  49.09   15  159   16  52.0  52.7 1008.4 -9.9 -9.999  93.3 -99.99 -9.99
2019/10/19 23:48 EDT   49.17  49.21   14  155   17  52.0  52.7 1008.4 -9.9 -9.999  92.5 -99.99 -9.99
2019/10/19 23:54 EDT   48.94  49.02   14  158   17  52.2  52.7 1008.4 -9.9 -9.999  91.1 -99.99 -9.99
2019/10/20 00:00 EDT   48.70  48.74   14  157   16  52.2  52.7 1008.4 -9.9 -9.999  90.6 -99.99 -9.99
2019/10/20 00:06 EDT   48.86  48.90   13  154   16  52.0  52.7 1008.3 -9.9 -9.999  92.2 -99.99 -9.99
2019/10/20 00:12 EDT   48.54  48.62   12  156   14  51.8  52.7 1008.3 -9.9 -9.999  92.7 -99.99 -9.99
2019/10/20 00:18 EDT   48.74  48.82   11  153   13  51.8  52.7 1008.3 -9.9 -9.999  93.3 -99.99 -9.99
2019/10/20 00:24 EDT   48.70  48.74   10  159   14  51.8  52.7 1008.3 -9.9 -9.999  93.6 -99.99 -9.99
2019/10/20 00:30 EDT   48.46  48.50   10  155   12  51.8  52.7 1008.2 -9.9 -9.999  93.4 -99.99 -9.99
2019/10/20 00:36 EDT   48.58  48.66   10  156   12  51.8  52.7 1008.1 -9.9 -9.999  93.0 -99.99 -9.99
2019/10/20 00:42 EDT   48.54  48.62    9  158   11  51.8  52.7 1008.1 -9.9 -9.999  93.1 -99.99 -9.99
2019/10/20 00:48 EDT   48.62  48.70    9  157   12  52.0  52.7 1008.1 -9.9 -9.999  92.4 -99.99 -9.99
2019/10/20 00:54 EDT   48.43  48.50   10  150   12  51.8  52.7 1008.1 -9.9 -9.999  93.0 -99.99 -9.99
2019/10/20 01:00 EDT   48.23  48.27   11  149   13  51.8  52.7 1008.1 -9.9 -9.999  92.5 -99.99 -9.99
2019/10/20 01:06 EDT   48.62  48.66    9  149   11  51.8  52.7 1007.9 -9.9 -9.999  93.0 -99.99 -9.99
2019/10/20 01:12 EDT   48.31  48.35    9  153   12  52.0  52.7 1008.0 -9.9 -9.999  92.3 -99.99 -9.99
2019/10/20 01:18 EDT   48.15  48.23    8  154   10  52.0  52.7 1008.0 -9.9 -9.999  92.4 -99.99 -9.99
2019/10/20 01:24 EDT   48.43  48.46    9  154   12  52.2  52.7 1007.9 -9.9 -9.999  90.9 -99.99 -9.99
2019/10/20 01:30 EDT   48.35  48.43   10  159   10  52.0  52.7 1007.8 -9.9 -9.999  91.8 -99.99 -9.99
2019/10/20 01:36 EDT   48.31  48.35    9  158   10  52.0  52.7 1007.8 -9.9 -9.999  91.1 -99.99 -9.99
2019/10/20 01:42 EDT   48.78  48.86   10  153   11  52.0  52.7 1007.9 -9.9 -9.999  92.2 -99.99 -9.99
2019/10/20 01:48 EDT   48.46  48.50   10  161   12  52.0  52.7 1007.9 -9.9 -9.999  91.1 -99.99 -9.99
2019/10/20 01:54 EDT   48.39  48.46   10  160   12  52.0  52.7 1007.8 -9.9 -9.999  91.4 -99.99 -9.99
2019/10/20 02:00 EDT   48.50  48.58   10  159   12  52.0  52.7 1007.7 -9.9 -9.999  91.3 -99.99 -9.99
2019/10/20 02:06 EDT   48.23  48.31    8  160   10  51.8  52.7 1007.7 -9.9 -9.999  92.5 -99.99 -9.99
2019/10/20 02:12 EDT   48.27  48.31    8  155   10  51.6  52.7 1007.6 -9.9 -9.999  93.2 -99.99 -9.99
2019/10/20 02:18 EDT   48.54  48.58    9  158   10  51.6  52.7 1007.7 -9.9 -9.999  92.4 -99.99 -9.99
2019/10/20 02:24 EDT   48.31  48.39   11  159   12  51.6  52.7 1007.7 -9.9 -9.999  92.9 -99.99 -9.99
2019/10/20 02:30 EDT   47.83  47.91   11  160   13  51.6  52.7 1007.7 -9.9 -9.999  92.4 -99.99 -9.99
2019/10/20 02:36 EDT   48.39  48.46   10  163   13  51.6  52.7 1007.6 -9.9 -9.999  91.9 -99.99 -9.99
2019/10/20 02:42 EDT   48.15  48.19    9  169   11  51.6  52.7 1007.7 -9.9 -9.999  91.2 -99.99 -9.99
2019/10/20 02:48 EDT   48.23  48.27    8  172   11  51.6  52.7 1007.8 -9.9 -9.999  92.2 -99.99 -9.99
2019/10/20 02:54 EDT   48.23  48.31   10  167   11  51.8  52.7 1007.8 -9.9 -9.999  91.0 -99.99 -9.99
2019/10/20 03:00 EDT   47.95  48.03   10  168   11  51.6  52.7 1007.8 -9.9 -9.999  91.6 -99.99 -9.99
2019/10/20 03:06 EDT   47.76  47.80    9  162   11  51.4  52.7 1007.7 -9.9 -9.999  92.8 -99.99 -9.99
2019/10/20 03:12 EDT   48.07  48.11    8  164    9  51.4  52.7 1007.7 -9.9 -9.999  92.5 -99.99 -9.99
2019/10/20 03:18 EDT   48.15  48.19    8  163   10  51.4  52.7 1007.7 -9.9 -9.999  92.7 -99.99 -9.99
2019/10/20 03:24 EDT   47.95  48.03    8  161    9  51.3  52.7 1007.7 -9.9 -9.999  92.6 -99.99 -9.99
2019/10/20 03:30 EDT   48.11  48.15    9  165    9  51.4  52.7 1007.7 -9.9 -9.999  92.1 -99.99 -9.99
2019/10/20 03:36 EDT   48.19  48.27    8  156    9  51.3  52.7 1007.5 -9.9 -9.999  93.6 -99.99 -9.99
2019/10/20 03:42 EDT   48.23  48.31    8  157    9  51.3  52.7 1007.6 -9.9 -9.999  94.2 -99.99 -9.99
2019/10/20 03:48 EDT   48.27  48.31    7  162    8  51.3  52.7 1007.6 -9.9 -9.999  94.0 -99.99 -9.99
2019/10/20 03:54 EDT   48.27  48.31    6  152    7  51.3  52.7 1007.6 -9.9 -9.999  95.0 -99.99 -9.99
2019/10/20 04:00 EDT   47.95  47.99    6  146    7  51.3  52.7 1007.6 -9.9 -9.999  95.4 -99.99 -9.99
2019/10/20 04:06 EDT   48.27  48.31    7  154    8  51.3  52.7 1007.6 -9.9 -9.999  95.7 -99.99 -9.99
2019/10/20 04:12 EDT   48.31  48.35    6  158    8  51.3  52.7 1007.5 -9.9 -9.999  96.1 -99.99 -9.99
2019/10/20 04:18 EDT   48.46  48.50    7  162    8  51.4  52.7 1007.4 -9.9 -9.999  96.3 -99.99 -9.99
2019/10/20 04:24 EDT   48.11  48.15    6  180    8  51.6  52.7 1007.4 -9.9 -9.999  94.7 -99.99 -9.99
2019/10/20 04:30 EDT   48.35  48.43    4  205    6  51.6  52.7 1007.4 -9.9 -9.999  93.8 -99.99 -9.99
2019/10/20 04:36 EDT   48.43  48.46    4  194    6  51.6  52.7 1007.4 -9.9 -9.999  90.6 -99.99 -9.99
2019/10/20 04:42 EDT   48.23  48.31    4  200    6  51.6  52.7 1007.4 -9.9 -9.999  89.5 -99.99 -9.99
2019/10/20 04:48 EDT   47.95  47.99    4  183    6  51.6  52.7 1007.4 -9.9 -9.999  89.2 -99.99 -9.99
2019/10/20 04:54 EDT   47.95  48.03    5  183    7  51.8  52.7 1007.4 -9.9 -9.999  89.3 -99.99 -9.99
2019/10/20 05:00 EDT   47.91  47.99    5  186    7  51.8  52.7 1007.6 -9.9 -9.999  89.3 -99.99 -9.99
2019/10/20 05:06 EDT   47.83  47.87    5  185    7  51.6  52.7 1007.6 -9.9 -9.999  88.9 -99.99 -9.99
2019/10/20 05:12 EDT   48.03  48.07    2  207    6  51.3  52.7 1007.6 -9.9 -9.999  90.7 -99.99 -9.99
2019/10/20 05:18 EDT   47.95  47.99    3  201    4  50.9  52.7 1007.6 -9.9 -9.999  91.7 -99.99 -9.99
2019/10/20 05:24 EDT   47.83  47.91    3  192    4  50.7  52.7 1007.6 -9.9 -9.999  93.1 -99.99 -9.99
2019/10/20 05:30 EDT   47.91  47.95    3  197    4  50.5  52.7 1007.6 -9.9 -9.999  93.8 -99.99 -9.99
2019/10/20 05:36 EDT   47.91  47.95    3  187    4  50.7  52.7 1007.6 -9.9 -9.999  93.4 -99.99 -9.99
2019/10/20 05:42 EDT   47.91  47.95    2  186    3  50.5  52.7 1007.7 -9.9 -9.999  94.5 -99.99 -9.99
2019/10/20 05:48 EDT   47.76  47.83    2  200    3  50.5  52.7 1007.6 -9.9 -9.999  94.8 -99.99 -9.99
2019/10/20 05:54 EDT   47.52  47.60    3  183    3  50.5  52.7 1007.7 -9.9 -9.999  95.0 -99.99 -9.99
2019/10/20 06:00 EDT   47.36  47.40    3  180    4  50.5  52.7 1007.8 -9.9 -9.999  95.9 -99.99 -9.99
2019/10/20 06:06 EDT   47.44  47.48    4  166    4  50.9  52.7 1007.9 -9.9 -9.999  94.3 -99.99 -9.99
2019/10/20 06:12 EDT   47.28  47.32    4  175    5  50.9  52.7 1007.9 -9.9 -9.999  95.8 -99.99 -9.99
2019/10/20 06:18 EDT   47.40  47.44    3  185    4  51.1  52.7 1007.8 -9.9 -9.999  95.0 -99.99 -9.99
2019/10/20 06:24 EDT   47.28  47.32    2  206    4  50.9  52.7 1007.8 -9.9 -9.999  95.1 -99.99 -9.99
2019/10/20 06:30 EDT   47.60  47.68    3  201    3  50.9  52.7 1008.0 -9.9 -9.999  94.9 -99.99 -9.99
2019/10/20 06:36 EDT   47.68  47.76    2  186    4  50.9  52.7 1008.0 -9.9 -9.999  95.1 -99.99 -9.99
2019/10/20 06:42 EDT   47.80  47.87    1  162    2  50.7  52.7 1007.9 -9.9 -9.999  96.6 -99.99 -9.99
2019/10/20 06:48 EDT   47.36  47.44    2  152    3  50.9  52.7 1008.0 -9.9 -9.999  96.9 -99.99 -9.99
2019/10/20 06:54 EDT   47.91  47.99    3  176    4  50.5  52.7 1008.1 -9.9 -9.999  98.7 -99.99 -9.99
2019/10/20 07:00 EDT   47.60  47.64    2  191    4  50.7  52.7 1008.2 -9.9 -9.999  98.2 -99.99 -9.99
2019/10/20 07:06 EDT   47.87  47.95    3  190    4  50.9  52.7 1008.2 -9.9 -9.999  96.5 -99.99 -9.99
2019/10/20 07:12 EDT   47.68  47.72    3  196    4  50.9  52.7 1008.4 -9.9 -9.999  96.0 -99.99 -9.99
2019/10/20 07:18 EDT   47.52  47.56    3  190    4  50.9  52.7 1008.4 -9.9 -9.999  95.7 -99.99 -9.99
2019/10/20 07:24 EDT   47.44  47.48    3  192    4  50.9  52.7 1008.3 -9.9 -9.999  96.1 -99.99 -9.99
2019/10/20 07:30 EDT   48.03  48.11    4  185    5  51.1  52.7 1008.3 -9.9 -9.999  95.2 -99.99 -9.99
2019/10/20 07:36 EDT   48.11  48.15    4  193    6  51.1  52.7 1008.3 -9.9 -9.999  94.8 -99.99 -9.99
2019/10/20 07:42 EDT   47.87  47.91    3  203    6  50.9  52.7 1008.2 -9.9 -9.999  94.4 -99.99 -9.99
2019/10/20 07:48 EDT   47.83  47.87    4  202    5  50.7  52.7 1008.2 -9.9 -9.999  94.6 -99.99 -9.99
2019/10/20 07:54 EDT   48.11  48.19    4  183    6  50.9  52.7 1008.1 -9.9 -9.999  94.6 -99.99 -9.99
2019/10/20 08:00 EDT   47.52  47.60    4  187    5  50.9  52.5 1008.4 -9.9 -9.999  96.1 -99.99 -9.99
2019/10/20 08:06 EDT   47.80  47.87    4  201    6  50.9  52.5 1008.4 -9.9 -9.999  96.3 -99.99 -9.99
2019/10/20 08:12 EDT   47.95  48.03    4  195    5  51.1  52.5 1008.5 -9.9 -9.999  95.2 -99.99 -9.99
2019/10/20 08:18 EDT   47.83  47.87    5  198    6  51.1  52.7 1008.6 -9.9 -9.999  94.9 -99.99 -9.99
2019/10/20 08:24 EDT   48.11  48.15    4  183    6  51.4  52.7 1008.6 -9.9 -9.999  94.4 -99.99 -9.99
2019/10/20 08:30 EDT   48.07  48.11    5  180    6  51.3  52.7 1008.7 -9.9 -9.999  95.8 -99.99 -9.99
2019/10/20 08:36 EDT   47.83  47.87    2  199    6  51.3  52.7 1008.7 -9.9 -9.999  96.0 -99.99 -9.99
2019/10/20 08:42 EDT   47.91  47.99    4  191    6  51.3  52.7 1008.7 -9.9 -9.999  95.5 -99.99 -9.99
2019/10/20 08:48 EDT   47.76  47.83    3  204    6  51.3  52.7 1008.9 -9.9 -9.999  95.6 -99.99 -9.99
2019/10/20 08:54 EDT   47.83  47.91    4  209    6  51.4  52.7 1009.0 -9.9 -9.999  94.2 -99.99 -9.99
2019/10/20 09:00 EDT   47.99  48.03    5  193    6  51.6  52.7 1009.2 -9.9 -9.999  93.1 -99.99 -9.99
2019/10/20 09:06 EDT   48.03  48.07    3  190    6  51.6  52.7 1009.2 -9.9 -9.999  93.7 -99.99 -9.99
2019/10/20 09:12 EDT   47.72  47.80    2  199    4  51.4  52.7 1009.4 -9.9 -9.999  94.5 -99.99 -9.99
2019/10/20 09:18 EDT   48.23  48.27    3  191    4  51.4  52.7 1009.4 -9.9 -9.999  93.8 -99.99 -9.99
2019/10/20 09:24 EDT   48.15  48.19    3  188    4  51.4  52.7 1009.5 -9.9 -9.999  93.3 -99.99 -9.99
2019/10/20 09:30 EDT   48.31  48.39    2  203    3  51.4  52.7 1009.5 -9.9 -9.999  93.6 -99.99 -9.99
2019/10/20 09:36 EDT   48.27  48.31    2  225    2  51.3  52.7 1009.6 -9.9 -9.999  93.7 -99.99 -9.99
2019/10/20 09:42 EDT   48.23  48.27    2  223    3  51.3  52.7 1009.7 -9.9 -9.999  94.2 -99.99 -9.99
2019/10/20 09:48 EDT   48.15  48.19    1  233    2  51.3  52.7 1009.7 -9.9 -9.999  94.7 -99.99 -9.99
2019/10/20 09:54 EDT   48.07  48.15    1  237    2  51.3  52.7 1009.7 -9.9 -9.999  94.6 -99.99 -9.99
2019/10/20 10:00 EDT   48.07  48.15    2  265    3  51.3  52.7 1009.6 -9.9 -9.999  94.4 -99.99 -9.99
2019/10/20 10:06 EDT   48.15  48.19    0  327    2  51.3  52.5 1009.6 -9.9 -9.999  94.7 -99.99 -9.99
2019/10/20 10:12 EDT   48.19  48.23    0   42    1  51.3  52.5 1009.6 -9.9 -9.999  94.4 -99.99 -9.99
2019/10/20 10:18 EDT   47.95  47.99    1   50    2  51.3  52.5 1009.6 -9.9 -9.999  94.1 -99.99 -9.99
2019/10/20 10:24 EDT   48.46  48.54    1   75    2  51.3  52.5 1009.7 -9.9 -9.999  94.4 -99.99 -9.99
2019/10/20 10:30 EDT   48.62  48.66    0  279    1  51.4  52.5 1010.0 -9.9 -9.999  94.3 -99.99 -9.99
2019/10/20 10:36 EDT   48.58  48.62    0  141    0  51.4  52.5 1010.0 -9.9 -9.999  93.8 -99.99 -9.99
2019/10/20 10:42 EDT   48.58  48.66    1  112    2  51.3  52.5 1010.0 -9.9 -9.999  95.2 -99.99 -9.99
2019/10/20 10:48 EDT   48.46  48.50    3  108    5  51.1  52.5 1010.0 -9.9 -9.999  96.2 -99.99 -9.99
2019/10/20 10:54 EDT   48.43  48.50    3  106    4  50.9  52.5 1009.9 -9.9 -9.999  99.1 -99.99 -9.99
2019/10/20 11:00 EDT   48.82  48.86    1  101    4  51.1  52.5 1010.0 -9.9 -9.999  99.1 -99.99 -9.99
2019/10/20 11:06 EDT   49.06  49.09    1  281    2  51.1  52.5 1010.2 -9.9 -9.999  97.7 -99.99 -9.99
2019/10/20 11:12 EDT   48.74  48.82    1  266    2  50.9  52.5 1010.3 -9.9 -9.999  98.9 -99.99 -9.99
2019/10/20 11:18 EDT   48.70  48.74    1  207    1  50.9  52.5 1010.3 -9.9 -9.999 100.0 -99.99 -9.99
2019/10/20 11:24 EDT   48.78  48.82    0  212    1  51.1  52.5 1010.3 -9.9 -9.999 100.0 -99.99 -9.99
2019/10/20 11:30 EDT   48.78  48.82    1   66    2  51.1  52.5 1010.2 -9.9 -9.999  99.4 -99.99 -9.99
2019/10/20 11:36 EDT   48.98  49.02    0  200    1  51.6  52.5 1010.3 -9.9 -9.999  99.7 -99.99 -9.99
2019/10/20 11:42 EDT   49.13  49.17    0  117    0  52.0  52.5 1010.3 -9.9 -9.999  97.1 -99.99 -9.99
2019/10/20 11:48 EDT   48.86  48.90    1   97    2  51.6  52.5 1010.3 -9.9 -9.999  96.0 -99.99 -9.99
2019/10/20 11:54 EDT   48.78  48.82    1   87    1  51.6  52.5 1010.3 -9.9 -9.999  96.0 -99.99 -9.99
2019/10/20 12:00 EDT   48.70  48.78    1   71    2  51.4  52.5 1010.4 -9.9 -9.999  96.8 -99.99 -9.99
2019/10/20 12:06 EDT   48.82  48.86    1   90    1  51.6  52.5 1010.5 -9.9 -9.999  96.2 -99.99 -9.99
2019/10/20 12:12 EDT   49.06  49.09    0   73    1  51.6  52.5 1010.6 -9.9 -9.999  98.6 -99.99 -9.99
2019/10/20 12:18 EDT   48.86  48.90    1  332    3  51.8  52.5 1010.8 -9.9 -9.999  97.3 -99.99 -9.99
2019/10/20 12:24 EDT   48.66  48.70    4  253    7  52.7  52.5 1010.9 -9.9 -9.999  99.0 -99.99 -9.99
2019/10/20 12:30 EDT   48.66  48.70    4  265    7  52.9  52.5 1011.0 -9.9 -9.999  99.4 -99.99 -9.99
2019/10/20 12:36 EDT   48.90  48.98    5  279    7  52.7  52.5 1011.1 -9.9 -9.999  98.8 -99.99 -9.99
2019/10/20 12:42 EDT   48.66  48.70    4  258    6  53.2  52.5 1011.1 -9.9 -9.999  98.6 -99.99 -9.99
2019/10/20 12:48 EDT   48.46  48.50    4   12    5  51.4  52.5 1011.2 -9.9 -9.999  97.4 -99.99 -9.99
2019/10/20 12:54 EDT   48.58  48.62    4   11    4  51.3  52.5 1011.2 -9.9 -9.999  99.4 -99.99 -9.99
2019/10/20 13:00 EDT   48.15  48.23    6   10    6  50.9  52.5 1011.3 -9.9 -9.999 100.0 -99.99 -9.99
2019/10/20 13:06 EDT   47.99  48.03    5    8    6  51.1  52.5 1011.3 -9.9 -9.999 100.0 -99.99 -9.99
2019/10/20 13:12 EDT   48.19  48.27    5    3    6  51.3  52.5 1011.3 -9.9 -9.999 100.0 -99.99 -9.99
2019/10/20 13:18 EDT   48.54  48.58    4    6    6  51.4  52.5 1011.3 -9.9 -9.999 100.0 -99.99 -9.99
2019/10/20 13:24 EDT   48.15  48.23    2  329    4  52.0  52.5 1011.3 -9.9 -9.999 100.0 -99.99 -9.99
2019/10/20 13:30 EDT   48.31  48.39    1  336    3  52.9  52.5 1011.3 -9.9 -9.999 100.0 -99.99 -9.99
2019/10/20 13:36 EDT   48.35  48.39    1  341    3  53.1  52.5 1011.4 -9.9 -9.999  97.9 -99.99 -9.99
2019/10/20 13:42 EDT   48.19  48.27    2   31    3  52.0  52.5 1011.4 -9.9 -9.999  98.1 -99.99 -9.99
2019/10/20 13:48 EDT   48.27  48.31    3    9    4  51.6  52.5 1011.4 -9.9 -9.999  99.2 -99.99 -9.99
2019/10/20 13:54 EDT   47.87  47.95    3   26    4  51.8  52.5 1011.4 -9.9 -9.999  99.0 -99.99 -9.99
2019/10/20 14:00 EDT   48.11  48.15    4   14    5  51.6  52.5 1011.4 -9.9 -9.999  99.7 -99.99 -9.99
2019/10/20 14:06 EDT   48.11  48.15    3  326    5  52.0  52.5 1011.4 -9.9 -9.999 100.0 -99.99 -9.99
2019/10/20 14:12 EDT   48.31  48.39    3   19    4  52.0  52.5 1011.4 -9.9 -9.999  99.8 -99.99 -9.99
2019/10/20 14:18 EDT   48.27  48.35    7    4    8  51.8  52.5 1011.3 -9.9 -9.999  99.9 -99.99 -9.99
2019/10/20 14:24 EDT   48.03  48.07    5  354    7  52.2  52.5 1011.3 -9.9 -9.999 100.0 -99.99 -9.99
2019/10/20 14:30 EDT   48.03  48.07    6  355    8  52.3  52.5 1011.3 -9.9 -9.999  99.4 -99.99 -9.99
2019/10/20 14:36 EDT   47.95  47.99    7  356    8  52.5  52.5 1011.4 -9.9 -9.999  99.1 -99.99 -9.99
2019/10/20 14:42 EDT   47.83  47.91    7  350    8  52.7  52.5 1011.5 -9.9 -9.999  98.4 -99.99 -9.99
2019/10/20 14:48 EDT   47.80  47.87    6  354    7  52.7  52.5 1011.5 -9.9 -9.999  98.2 -99.99 -9.99
2019/10/20 14:54 EDT   47.95  48.03    6  353    7  52.5  52.5 1011.7 -9.9 -9.999  98.5 -99.99 -9.99
2019/10/20 15:00 EDT   47.87  47.95    6  355    8  52.5  52.5 1011.7 -9.9 -9.999  98.3 -99.99 -9.99
2019/10/20 15:06 EDT   47.76  47.83    6    2    8  52.3  52.5 1011.6 -9.9 -9.999  97.8 -99.99 -9.99
2019/10/20 15:12 EDT   47.68  47.72    6  358    8  52.3  52.5 1011.6 -9.9 -9.999  97.9 -99.99 -9.99
2019/10/20 15:18 EDT   47.68  47.76    6  352    8  52.3  52.5 1011.7 -9.9 -9.999  97.4 -99.99 -9.99
2019/10/20 15:24 EDT   47.76  47.83    5  352    8  52.5  52.5 1011.6 -9.9 -9.999  92.4 -99.99 -9.99
2019/10/20 15:30 EDT   47.52  47.60    8  357   10  52.3  52.5 1011.6 -9.9 -9.999  96.8 -99.99 -9.99
2019/10/20 15:36 EDT   47.17  47.24    7  341   10  52.5  52.5 1011.6 -9.9 -9.999  96.8 -99.99 -9.99
2019/10/20 15:42 EDT   47.20  47.24    6  354    8  52.5  52.5 1011.6 -9.9 -9.999  96.5 -99.99 -9.99
2019/10/20 15:48 EDT   47.28  47.32    7  352    9  52.5  52.5 1011.6 -9.9 -9.999  95.6 -99.99 -9.99
2019/10/20 15:54 EDT   47.48  47.56    7  357    9  52.5  52.5 1011.7 -9.9 -9.999  95.1 -99.99 -9.99
2019/10/20 16:00 EDT   47.44  47.52    7  350    8  52.5  52.5 1012.0 -9.9 -9.999  95.8 -99.99 -9.99
2019/10/20 16:06 EDT   47.36  47.40    5  336    7  53.2  52.5 1012.2 -9.9 -9.999  94.1 -99.99 -9.99
2019/10/20 16:12 EDT   47.20  47.28    4  347    6  53.2  52.5 1012.3 -9.9 -9.999  94.2 -99.99 -9.99
2019/10/20 16:18 EDT   47.24  47.28    5  345    9  53.2  52.5 1012.4 -9.9 -9.999  93.1 -99.99 -9.99
2019/10/20 16:24 EDT   47.36  47.40    4  329   11  53.2  52.5 1012.5 -9.9 -9.999  93.6 -99.99 -9.99
2019/10/20 16:30 EDT   47.40  47.44    6  342    9  53.1  52.5 1012.5 -9.9 -9.999  93.4 -99.99 -9.99
2019/10/20 16:36 EDT   47.24  47.32    8  352   10  53.2  52.5 1012.6 -9.9 -9.999  92.6 -99.99 -9.99
2019/10/20 16:42 EDT   47.36  47.40    8  350    9  52.9  52.5 1012.7 -9.9 -9.999  93.4 -99.99 -9.99
2019/10/20 16:48 EDT   47.28  47.32    7  356   10  52.7  52.5 1012.8 -9.9 -9.999  94.5 -99.99 -9.99
2019/10/20 16:54 EDT   47.28  47.32    8  351   11  52.9  52.5 1012.8 -9.9 -9.999  93.7 -99.99 -9.99
2019/10/20 17:00 EDT   47.24  47.32    7  359    9  52.7  52.5 1012.9 -9.9 -9.999  94.0 -99.99 -9.99
2019/10/20 17:06 EDT   47.17  47.24    8  358   10  53.1  52.5 1012.9 -9.9 -9.999  91.9 -99.99 -9.99
2019/10/20 17:12 EDT   47.28  47.36    8  355   10  53.1  52.5 1013.0 -9.9 -9.999  91.9 -99.99 -9.99
2019/10/20 17:18 EDT   47.24  47.32    7    1   10  53.1  52.5 1013.1 -9.9 -9.999  91.7 -99.99 -9.99
2019/10/20 17:24 EDT   47.20  47.28    7    4    7  52.7  52.5 1013.1 -9.9 -9.999  93.1 -99.99 -9.99
2019/10/20 17:30 EDT   47.20  47.28    5   13    7  52.5  52.5 1013.2 -9.9 -9.999  94.2 -99.99 -9.99
2019/10/20 17:36 EDT   47.40  47.44    5    7    6  52.5  52.5 1013.2 -9.9 -9.999  94.6 -99.99 -9.99
2019/10/20 17:42 EDT   47.13  47.20    5    8    6  52.5  52.5 1013.3 -9.9 -9.999  94.3 -99.99 -9.99
2019/10/20 17:48 EDT   47.05  47.09    5    4    6  52.5  52.5 1013.4 -9.9 -9.999  94.1 -99.99 -9.99
2019/10/20 17:54 EDT   47.09  47.13    4    3    6  52.3  52.5 1013.4 -9.9 -9.999  95.5 -99.99 -9.99
2019/10/20 18:00 EDT   47.13  47.20    3  357    5  52.5  52.5 1013.4 -9.9 -9.999  95.5 -99.99 -9.99
2019/10/20 18:06 EDT   47.36  47.40    2  343    4  52.5  52.5 1013.4 -9.9 -9.999  95.1 -99.99 -9.99
2019/10/20 18:12 EDT   47.40  47.44    2  342    3  52.5  52.5 1013.4 -9.9 -9.999  94.0 -99.99 -9.99
2019/10/20 18:18 EDT   47.32  47.36    3  358    3  52.3  52.5 1013.4 -9.9 -9.999  94.8 -99.99 -9.99
2019/10/20 18:24 EDT   47.20  47.28    2    6    3  52.0  52.5 1013.4 -9.9 -9.999  96.7 -99.99 -9.99
2019/10/20 18:30 EDT   47.17  47.20    2    3    3  51.4  52.5 1013.5 -9.9 -9.999  98.3 -99.99 -9.99
2019/10/20 18:36 EDT  -99.99  47.32    2  360    3  51.3  52.5 1013.6 -9.9 -9.999  98.4 -99.99 -9.99
2019/10/20 18:42 EDT   47.32  47.36    2   14    3  51.3  52.5 1013.6 -9.9 -9.999  97.8 -99.99 -9.99
2019/10/20 18:48 EDT   47.36  47.44    2  355    3  51.1  52.5 1013.6 -9.9 -9.999  98.3 -99.99 -9.99
2019/10/20 18:54 EDT   47.28  47.32    2  358    3  50.7  52.5 1013.7 -9.9 -9.999  99.1 -99.99 -9.99
2019/10/20 19:00 EDT   47.17  47.20    2    1    3  50.7  52.5 1013.7 -9.9 -9.999  99.5 -99.99 -9.99
2019/10/20 19:06 EDT   47.36  47.40    2  339    2  50.5  52.5 1013.8 -9.9 -9.999  99.4 -99.99 -9.99
2019/10/20 19:12 EDT   47.44  47.52    2  351    2  50.4  52.5 1013.9 -9.9 -9.999 100.0 -99.99 -9.99
2019/10/20 19:18 EDT   47.52  47.60    1  343    2  50.0  52.5 1014.0 -9.9 -9.999 100.0 -99.99 -9.99
2019/10/20 19:24 EDT   47.48  47.56    1  271    1  49.8  52.5 1014.2 -9.9 -9.999 100.0 -99.99 -9.99
2019/10/20 19:30 EDT   47.32  47.36    1  259    1  49.5  52.5 1014.4 -9.9 -9.999 100.0 -99.99 -9.99
2019/10/20 19:36 EDT   47.20  47.24    1  198    1  50.4  52.5 1014.5 -9.9 -9.999 100.0 -99.99 -9.99
2019/10/20 19:42 EDT   47.20  47.24    1  192    2  49.5  52.5 1014.6 -9.9 -9.999 100.0 -99.99 -9.99
2019/10/20 19:48 EDT   47.17  47.24    2  214    2  49.5  52.5 1014.6 -9.9 -9.999 100.0 -99.99 -9.99
2019/10/20 19:54 EDT   47.24  47.32    2  230    2  49.3  52.5 1014.8 -9.9 -9.999 100.0 -99.99 -9.99
2019/10/20 20:00 EDT   47.24  47.28    1  227    2  48.7  52.5 1014.8 -9.9 -9.999 100.0 -99.99 -9.99
2019/10/20 20:06 EDT   47.13  47.20    1  193    2  48.9  52.5 1014.8 -9.9 -9.999 100.0 -99.99 -9.99
2019/10/20 20:12 EDT   47.05  47.13    2  211    2  48.4  52.5 1015.0 -9.9 -9.999 100.0 -99.99 -9.99
2019/10/20 20:18 EDT   47.24  47.28    2  211    3  46.6  52.5 1015.1 -9.9 -9.999 100.0 -99.99 -9.99
2019/10/20 20:24 EDT   47.20  47.24    1  174    3  47.3  52.5 1014.9 -9.9 -9.999 100.0 -99.99 -9.99
2019/10/20 20:30 EDT   47.13  47.20    0  267    1  47.5  52.5 1015.0 -9.9 -9.999 100.0 -99.99 -9.99
2019/10/20 20:36 EDT   47.13  47.20    1  261    2  47.5  52.5 1015.0 -9.9 -9.999 100.0 -99.99 -9.99
2019/10/20 20:42 EDT   47.32  47.36    3  238    3  46.4  52.5 1015.2 -9.9 -9.999 100.0 -99.99 -9.99
2019/10/20 20:48 EDT   47.44  47.48    2  242    3  47.8  52.5 1015.2 -9.9 -9.999 100.0 -99.99 -9.99
2019/10/20 20:54 EDT   47.68  47.76    2  241    2  48.2  52.5 1015.1 -9.9 -9.999 100.0 -99.99 -9.99
2019/10/20 21:00 EDT   47.56  47.64    1  292    2  47.1  52.5 1015.1 -9.9 -9.999 100.0 -99.99 -9.99
2019/10/20 21:06 EDT   47.48  47.56    1  306    1  47.1  52.5 1015.1 -9.9 -9.999 100.0 -99.99 -9.99
2019/10/20 21:12 EDT   47.60  47.68    0  314    1  47.1  52.5 1015.0 -9.9 -9.999 100.0 -99.99 -9.99
2019/10/20 21:18 EDT   47.56  47.64    0  307    0  46.6  52.5 1015.0 -9.9 -9.999 100.0 -99.99 -9.99
2019/10/20 21:24 EDT   47.68  47.72    1   21    2  46.6  52.5 1015.0 -9.9 -9.999 100.0 -99.99 -9.99
2019/10/20 21:30 EDT   47.72  47.80    1   33    2  46.6  52.5 1015.1 -9.9 -9.999 100.0 -99.99 -9.99
2019/10/20 21:36 EDT   48.07  48.11    2   44    2  46.9  52.5 1015.1 -9.9 -9.999 100.0 -99.99 -9.99
2019/10/20 21:42 EDT   47.87  47.91    1    2    2  47.1  52.5 1015.1 -9.9 -9.999 100.0 -99.99 -9.99
2019/10/20 21:48 EDT   48.03  48.07    1  315    1  47.1  52.5 1015.2 -9.9 -9.999 100.0 -99.99 -9.99
2019/10/20 21:54 EDT   47.99  48.07    0  289    1  46.8  52.5 1015.4 -9.9 -9.999 100.0 -99.99 -9.99
2019/10/20 22:00 EDT   48.11  48.15    0  208    1  46.9  52.5 1015.5 -9.9 -9.999 100.0 -99.99 -9.99
2019/10/20 22:06 EDT   48.07  48.11    2  181    2  46.4  52.5 1015.6 -9.9 -9.999 100.0 -99.99 -9.99
2019/10/20 22:12 EDT   48.03  48.07    1  210    2  46.8  52.5 1015.7 -9.9 -9.999 100.0 -99.99 -9.99
2019/10/20 22:18 EDT   48.03  48.11    2  217    2  45.3  52.5 1015.8 -9.9 -9.999 100.0 -99.99 -9.99
2019/10/20 22:24 EDT   48.07  48.15    2  185    2  45.9  52.5 1015.9 -9.9 -9.999 100.0 -99.99 -9.99
2019/10/20 22:30 EDT   48.11  48.15    2  212    2  46.2  52.5 1016.0 -9.9 -9.999 100.0 -99.99 -9.99
2019/10/20 22:36 EDT   48.27  48.35    3  227    4  47.3  52.5 1016.0 -9.9 -9.999 100.0 -99.99 -9.99
2019/10/20 22:42 EDT   48.23  48.27    3  220    3  47.7  52.5 1016.1 -9.9 -9.999 100.0 -99.99 -9.99
2019/10/20 22:48 EDT   48.19  48.27    2  219    3  47.5  52.5 1016.1 -9.9 -9.999 100.0 -99.99 -9.99
2019/10/20 22:54 EDT   48.03  48.07    0  211    1  46.6  52.5 1016.1 -9.9 -9.999 100.0 -99.99 -9.99
2019/10/20 23:00 EDT   48.15  48.19    1  296    2  46.0  52.5 1016.1 -9.9 -9.999 100.0 -99.99 -9.99
2019/10/20 23:06 EDT   48.27  48.31    0   70    1  46.9  52.5 1016.0 -9.9 -9.999 100.0 -99.99 -9.99
2019/10/20 23:12 EDT   48.31  48.39    1   25    1  46.8  52.5 1015.9 -9.9 -9.999 100.0 -99.99 -9.99
2019/10/20 23:18 EDT   48.66  48.74    0  343    1  46.2  52.5 1015.9 -9.9 -9.999 100.0 -99.99 -9.99
2019/10/20 23:24 EDT   48.70  48.74    0   59    1  46.6  52.5 1015.9 -9.9 -9.999 100.0 -99.99 -9.99
2019/10/20 23:30 EDT   48.78  48.86    0    9    1  46.9  52.3 1015.9 -9.9 -9.999 100.0 -99.99 -9.99
2019/10/20 23:36 EDT   48.70  48.74    1   12    1  46.8  52.5 1015.9 -9.9 -9.999 100.0 -99.99 -9.99
2019/10/20 23:42 EDT   48.78  48.86    1  354    1  47.3  52.5 1015.9 -9.9 -9.999 100.0 -99.99 -9.99
2019/10/20 23:48 EDT   48.78  48.82    1  360    1  47.3  52.5 1016.0 -9.9 -9.999 100.0 -99.99 -9.99
2019/10/20 23:54 EDT   49.02  49.09    1   16    1  47.1  52.5 1016.0 -9.9 -9.999 100.0 -99.99 -9.99
2019/10/21 00:00 EDT   49.02  49.09    1    8    2  47.1  52.3 1016.1 -9.9 -9.999 100.0 -99.99 -9.99
2019/10/21 00:06 EDT   49.02  49.06    3  354    3  46.9  52.3 1016.1 -9.9 -9.999 100.0 -99.99 -9.99
2019/10/21 00:12 EDT   48.82  48.90    2  347    3  47.1  52.5 1016.1 -9.9 -9.999 100.0 -99.99 -9.99
2019/10/21 00:18 EDT   48.90  48.98    2    5    2  47.1  52.3 1016.1 -9.9 -9.999 100.0 -99.99 -9.99
2019/10/21 00:24 EDT   49.06  49.13    2    7    2  47.1  52.3 1016.1 -9.9 -9.999 100.0 -99.99 -9.99
2019/10/21 00:30 EDT   49.06  49.09    2    4    3  46.9  52.3 1016.0 -9.9 -9.999 100.0 -99.99 -9.99
2019/10/21 00:36 EDT   48.74  48.82    3   10    3  47.1  52.3 1015.9 -9.9 -9.999 100.0 -99.99 -9.99
2019/10/21 00:42 EDT   48.62  48.66    2  353    3  46.8  52.3 1016.0 -9.9 -9.999 100.0 -99.99 -9.99
2019/10/21 00:48 EDT   49.06  49.13    2   11    3  47.1  52.3 1016.0 -9.9 -9.999 100.0 -99.99 -9.99
2019/10/21 00:54 EDT   48.74  48.82    2   21    3  47.1  52.3 1015.9 -9.9 -9.999 100.0 -99.99 -9.99
2019/10/21 01:00 EDT   48.94  49.02    4   15    4  46.9  52.3 1015.7 -9.9 -9.999 100.0 -99.99 -9.99
2019/10/21 01:06 EDT   48.66  48.70    3   17    4  46.9  52.3 1015.7 -9.9 -9.999 100.0 -99.99 -9.99
2019/10/21 01:12 EDT   48.39  48.43    2  341    3  46.8  52.3 1015.9 -9.9 -9.999 100.0 -99.99 -9.99
2019/10/21 01:18 EDT   48.54  48.62    3    6    3  47.3  52.3 1015.7 -9.9 -9.999 100.0 -99.99 -9.99
2019/10/21 01:24 EDT   49.06  49.13    5   44    6  48.7  52.3 1015.6 -9.9 -9.999 100.0 -99.99 -9.99
2019/10/21 01:30 EDT   49.02  49.06    2   34    5  48.7  52.3 1015.9 -9.9 -9.999 100.0 -99.99 -9.99
2019/10/21 01:36 EDT   49.25  49.29    2   34    4  48.6  52.3 1016.0 -9.9 -9.999 100.0 -99.99 -9.99
2019/10/21 01:42 EDT   48.90  48.94    3   30    4  48.2  52.3 1016.0 -9.9 -9.999 100.0 -99.99 -9.99
2019/10/21 01:48 EDT   48.90  48.94    2   36    3  48.2  52.3 1016.1 -9.9 -9.999 100.0 -99.99 -9.99
2019/10/21 01:54 EDT   48.70  48.74    3   64    3  48.4  52.3 1016.0 -9.9 -9.999 100.0 -99.99 -9.99
2019/10/21 02:00 EDT   48.94  49.02    3   54    4  48.2  52.3 1016.0 -9.9 -9.999 100.0 -99.99 -9.99
2019/10/21 02:06 EDT   48.70  48.74    4   59    4  48.2  52.3 1016.0 -9.9 -9.999 100.0 -99.99 -9.99
2019/10/21 02:12 EDT   48.70  48.78    3   43    4  48.4  52.3 1016.0 -9.9 -9.999 100.0 -99.99 -9.99
2019/10/21 02:18 EDT   49.25  49.33    3   25    4  48.4  52.3 1016.1 -9.9 -9.999 100.0 -99.99 -9.99
2019/10/21 02:24 EDT   49.06  49.09    3   13    4  48.4  52.3 1016.1 -9.9 -9.999 100.0 -99.99 -9.99
2019/10/21 02:30 EDT   49.02  49.09    3   13    4  48.2  52.3 1016.1 -9.9 -9.999 100.0 -99.99 -9.99
2019/10/21 02:36 EDT   48.94  48.98    3    2    4  48.2  52.3 1016.1 -9.9 -9.999 100.0 -99.99 -9.99
2019/10/21 02:42 EDT  -99.99  49.06    3    7    4  48.4  52.3 1016.2 -9.9 -9.999 100.0 -99.99 -9.99
2019/10/21 02:48 EDT   48.70  48.74    2   19    3  48.4  52.3 1016.3 -9.9 -9.999 100.0 -99.99 -9.99
2019/10/21 02:54 EDT   48.54  48.58    2    6    3  48.6  52.3 1016.3 -9.9 -9.999 100.0 -99.99 -9.99
2019/10/21 03:00 EDT   48.54  48.62    2  349    3  48.4  52.3 1016.4 -9.9 -9.999 100.0 -99.99 -9.99
2019/10/21 03:06 EDT   48.62  48.70    1  337    3  48.4  52.3 1016.4 -9.9 -9.999 100.0 -99.99 -9.99
2019/10/21 03:12 EDT   48.43  48.50    2    5    3  48.6  52.3 1016.4 -9.9 -9.999 100.0 -99.99 -9.99
2019/10/21 03:18 EDT   48.62  48.70    2   11    3  48.4  52.3 1016.3 -9.9 -9.999 100.0 -99.99 -9.99
2019/10/21 03:24 EDT   48.62  48.66    2   32    3  48.6  52.3 1016.3 -9.9 -9.999 100.0 -99.99 -9.99
2019/10/21 03:30 EDT   48.46  48.54    2   14    3  48.4  52.3 1016.3 -9.9 -9.999 100.0 -99.99 -9.99
2019/10/21 03:36 EDT   48.43  48.50    1  360    2  48.4  52.3 1016.4 -9.9 -9.999 100.0 -99.99 -9.99
2019/10/21 03:42 EDT   48.58  48.66    1   10    2  48.0  52.3 1016.3 -9.9 -9.999 100.0 -99.99 -9.99
2019/10/21 03:48 EDT   48.43  48.46    1  358    1  48.2  52.3 1016.4 -9.9 -9.999 100.0 -99.99 -9.99
2019/10/21 03:54 EDT   48.50  48.54    1   11    2  48.2  52.3 1016.5 -9.9 -9.999 100.0 -99.99 -9.99
2019/10/21 04:00 EDT   48.54  48.58    1  360    2  48.0  52.3 1016.4 -9.9 -9.999 100.0 -99.99 -9.99
2019/10/21 04:06 EDT   48.31  48.39    2   11    2  48.2  52.5 1016.3 -9.9 -9.999 100.0 -99.99 -9.99
2019/10/21 04:12 EDT   48.23  48.27    2   12    3  48.0  52.5 1016.3 -9.9 -9.999 100.0 -99.99 -9.99
2019/10/21 04:18 EDT   48.23  48.27    3   18    4  48.2  52.3 1016.3 -9.9 -9.999 100.0 -99.99 -9.99
2019/10/21 04:24 EDT   48.03  48.07    4   21    4  48.4  52.3 1016.3 -9.9 -9.999 100.0 -99.99 -9.99
2019/10/21 04:30 EDT   48.35  48.39    3   27    4  48.7  52.3 1016.1 -9.9 -9.999 100.0 -99.99 -9.99
2019/10/21 04:36 EDT   48.50  48.54    3   33    4  49.1  52.3 1015.9 -9.9 -9.999 100.0 -99.99 -9.99
2019/10/21 04:42 EDT   48.27  48.31    3   30    4  48.7  52.3 1015.7 -9.9 -9.999 100.0 -99.99 -9.99
2019/10/21 04:48 EDT   48.19  48.23    3   40    4  48.4  52.3 1015.4 -9.9 -9.999 100.0 -99.99 -9.99
2019/10/21 04:54 EDT   47.87  47.95    3   79    4  48.4  52.3 1015.4 -9.9 -9.999 100.0 -99.99 -9.99
2019/10/21 05:00 EDT   47.83  47.87    5   85    6  48.7  52.3 1015.6 -9.9 -9.999 100.0 -99.99 -9.99
2019/10/21 05:06 EDT   48.11  48.15    7   98    9  49.6  52.3 1016.1 -9.9 -9.999 100.0 -99.99 -9.99
2019/10/21 05:12 EDT   48.03  48.11    5  103    8  49.3  52.3 1016.4 -9.9 -9.999 100.0 -99.99 -9.99
2019/10/21 05:18 EDT   48.15  48.23    5  104    7  49.1  52.3 1016.1 -9.9 -9.999 100.0 -99.99 -9.99
2019/10/21 05:24 EDT   48.35  48.43    5   95    6  48.7  52.3 1016.0 -9.9 -9.999 100.0 -99.99 -9.99
2019/10/21 05:30 EDT   48.15  48.23    6   93    7  48.7  52.3 1016.0 -9.9 -9.999 100.0 -99.99 -9.99
2019/10/21 05:36 EDT   48.15  48.19    7   95    8  48.9  52.3 1015.9 -9.9 -9.999 100.0 -99.99 -9.99
2019/10/21 05:42 EDT   48.43  48.46    8  100   10  49.3  52.3 1016.0 -9.9 -9.999  99.3 -99.99 -9.99
2019/10/21 05:48 EDT   48.35  48.39    9  104   12  49.6  52.3 1016.1 -9.9 -9.999  97.0 -99.99 -9.99
2019/10/21 05:54 EDT   47.99  48.07    8  102   11  49.5  52.3 1016.1 -9.9 -9.999  96.8 -99.99 -9.99
2019/10/21 06:00 EDT   47.95  48.03    9   99   11  49.5  52.3 1016.1 -9.9 -9.999  96.7 -99.99 -9.99
2019/10/21 06:06 EDT   47.80  47.87    9  101   12  49.5  52.3 1016.2 -9.9 -9.999  96.5 -99.99 -9.99
2019/10/21 06:12 EDT   47.87  47.91    9  107   11  49.5  52.3 1016.5 -9.9 -9.999  96.0 -99.99 -9.99
2019/10/21 06:18 EDT   48.50  48.54   10  114   11  49.5  52.3 1016.6 -9.9 -9.999  95.2 -99.99 -9.99
2019/10/21 06:24 EDT   48.58  48.62    8  125   12  49.6  52.3 1016.5 -9.9 -9.999  94.9 -99.99 -9.99
2019/10/21 06:30 EDT   48.50  48.58    8  123   11  49.5  52.3 1016.5 -9.9 -9.999  95.5 -99.99 -9.99
2019/10/21 06:36 EDT   47.83  47.91    8  120   11  49.3  52.3 1016.3 -9.9 -9.999  95.6 -99.99 -9.99
2019/10/21 06:42 EDT   47.48  47.52    9  118   11  49.3  52.3 1016.3 -9.9 -9.999  95.3 -99.99 -9.99
2019/10/21 06:48 EDT   47.60  47.68   10  112   12  49.1  52.3 1016.3 -9.9 -9.999  95.2 -99.99 -9.99
2019/10/21 06:54 EDT   48.11  48.15    9  109   11  48.9  52.3 1016.2 -9.9 -9.999  95.9 -99.99 -9.99
2019/10/21 07:00 EDT   48.23  48.31    8  103   11  48.7  52.3 1016.2 -9.9 -9.999  96.6 -99.99 -9.99
2019/10/21 07:06 EDT   48.43  48.46    7   96   10  48.7  52.3 1016.1 -9.9 -9.999  96.8 -99.99 -9.99
2019/10/21 07:12 EDT   48.03  48.11    8   94    9  48.4  52.3 1016.0 -9.9 -9.999  96.9 -99.99 -9.99
2019/10/21 07:18 EDT   48.39  48.43    8   95   10  48.2  52.3 1016.0 -9.9 -9.999  97.2 -99.99 -9.99
2019/10/21 07:24 EDT   49.02  49.09    8   97   11  48.0  52.3 1016.1 -9.9 -9.999  97.5 -99.99 -9.99
2019/10/21 07:30 EDT   48.74  48.78    6   82    8  47.8  52.3 1016.0 -9.9 -9.999  98.9 -99.99 -9.99
2019/10/21 07:36 EDT   48.54  48.62    7   86    9  47.8  52.3 1016.0 -9.9 -9.999  99.1 -99.99 -9.99
2019/10/21 07:42 EDT   48.54  48.58    8   89    9  47.8  52.3 1015.9 -9.9 -9.999  98.7 -99.99 -9.99
2019/10/21 07:48 EDT   48.07  48.15    9   86   11  48.0  52.3 1015.7 -9.9 -9.999  98.3 -99.99 -9.99
2019/10/21 07:54 EDT   48.39  48.46    9   82   11  48.0  52.3 1015.6 -9.9 -9.999  98.1 -99.99 -9.99
2019/10/21 08:00 EDT   48.94  48.98   10   85   11  48.0  52.3 1015.8 -9.9 -9.999  97.4 -99.99 -9.99
2019/10/21 08:06 EDT   48.70  48.74    9   89   12  47.8  52.3 1015.8 -9.9 -9.999  97.9 -99.99 -9.99
2019/10/21 08:12 EDT   48.94  48.98    9   87   11  47.7  52.3 1015.6 -9.9 -9.999  98.4 -99.99 -9.99
2019/10/21 08:18 EDT   49.09  49.17    8   89   11  47.8  52.3 1015.5 -9.9 -9.999  98.8 -99.99 -9.99
2019/10/21 08:24 EDT   48.94  48.98   10   82   12  47.8  52.3 1015.3 -9.9 -9.999  98.3 -99.99 -9.99
2019/10/21 08:30 EDT   48.78  48.82    9   80   12  48.2  52.3 1015.3 -9.9 -9.999  98.0 -99.99 -9.99
2019/10/21 08:36 EDT   49.09  49.13   10   83   13  48.4  52.3 1015.2 -9.9 -9.999  97.1 -99.99 -9.99
2019/10/21 08:42 EDT   48.86  48.90   11   90   13  48.6  52.3 1015.1 -9.9 -9.999  95.8 -99.99 -9.99
2019/10/21 08:48 EDT   48.90  48.94   11   88   14  48.6  52.3 1014.7 -9.9 -9.999  94.8 -99.99 -9.99
2019/10/21 08:54 EDT   48.94  49.02   11   95   15  48.7  52.3 1014.7 -9.9 -9.999  93.9 -99.99 -9.99
2019/10/21 09:00 EDT   49.02  49.06   10   94   14  48.7  52.3 1014.7 -9.9 -9.999  93.9 -99.99 -9.99
2019/10/21 09:06 EDT   49.33  49.37    9   93   12  48.7  52.3 1014.7 -9.9 -9.999  93.9 -99.99 -9.99
2019/10/21 09:12 EDT   49.80  49.84   10   92   13  48.7  52.3 1014.7 -9.9 -9.999  93.7 -99.99 -9.99
2019/10/21 09:18 EDT   49.61  49.65    9  100   13  48.9  52.3 1014.7 -9.9 -9.999  93.8 -99.99 -9.99
2019/10/21 09:24 EDT   49.45  49.49    9  105   12  48.9  52.2 1014.8 -9.9 -9.999  93.6 -99.99 -9.99
2019/10/21 09:30 EDT   49.61  49.65    9  119   12  48.9  52.3 1015.0 -9.9 -9.999  93.5 -99.99 -9.99
2019/10/21 09:36 EDT   49.53  49.57   10  114   14  49.5  52.3 1014.8 -9.9 -9.999  92.0 -99.99 -9.99
2019/10/21 09:42 EDT   49.29  49.33   10  102   13  49.3  52.3 1014.6 -9.9 -9.999  92.0 -99.99 -9.99
2019/10/21 09:48 EDT   49.53  49.57   12  104   16  49.3  52.3 1014.5 -9.9 -9.999  92.9 -99.99 -9.99
2019/10/21 09:54 EDT   49.17  49.21   12  108   16  49.3  52.3 1014.7 -9.9 -9.999  93.1 -99.99 -9.99
2019/10/21 10:00 EDT   49.76  49.84   10  103   15  49.5  52.3 1014.5 -9.9 -9.999  93.5 -99.99 -9.99
2019/10/21 10:06 EDT   50.28  50.31    8  113   14  49.8  52.3 1014.2 -9.9 -9.999  93.6 -99.99 -9.99
2019/10/21 10:12 EDT   49.80  49.88   10  114   13  49.6  52.3 1014.2 -9.9 -9.999  93.8 -99.99 -9.99
2019/10/21 10:18 EDT   50.12  50.16   11  111   14  49.8  52.2 1014.1 -9.9 -9.999  93.7 -99.99 -9.99
2019/10/21 10:24 EDT   50.12  50.16   12  111   15  50.0  52.2 1014.1 -9.9 -9.999  93.2 -99.99 -9.99
2019/10/21 10:30 EDT   50.08  50.12    8  117   13  50.5  52.2 1013.9 -9.9 -9.999  93.5 -99.99 -9.99
2019/10/21 10:36 EDT   50.28  50.31    8  115   13  50.7  52.2 1013.8 -9.9 -9.999  92.5 -99.99 -9.99
2019/10/21 10:42 EDT   50.20  50.24   11  114   16  50.9  52.2 1013.6 -9.9 -9.999  91.2 -99.99 -9.99
2019/10/21 10:48 EDT   49.61  49.65   10  109   13  50.7  52.2 1013.5 -9.9 -9.999  92.1 -99.99 -9.99
2019/10/21 10:54 EDT   49.57  49.65   11  113   15  50.9  52.3 1013.5 -9.9 -9.999  91.8 -99.99 -9.99
2019/10/21 11:00 EDT   49.92  49.96   13  113   17  50.9  52.3 1013.5 -9.9 -9.999  91.6 -99.99 -9.99
2019/10/21 11:06 EDT   50.31  50.35   12  116   15  51.4  52.2 1013.4 -9.9 -9.999  90.9 -99.99 -9.99
2019/10/21 11:12 EDT   50.35  50.39   11  116   16  51.8  52.2 1013.2 -9.9 -9.999  89.5 -99.99 -9.99
2019/10/21 11:18 EDT   50.43  50.47   13  113   16  51.4  52.2 1013.3 -9.9 -9.999  90.1 -99.99 -9.99
2019/10/21 11:24 EDT   50.16  50.20   17  120   21  51.6  52.2 1013.4 -9.9 -9.999  90.0 -99.99 -9.99
2019/10/21 11:30 EDT   49.88  49.92   15  121   20  52.0  52.2 1013.5 -9.9 -9.999  89.7 -99.99 -9.99
2019/10/21 11:36 EDT   49.84  49.88   14  131   20  52.0  52.2 1013.6 -9.9 -9.999  89.8 -99.99 -9.99
2019/10/21 11:42 EDT   50.00  50.04   13  128   20  52.0  52.2 1013.5 -9.9 -9.999  90.4 -99.99 -9.99
2019/10/21 11:48 EDT   49.76  49.84   17  126   22  51.8  52.2 1013.3 -9.9 -9.999  90.5 -99.99 -9.99
2019/10/21 11:54 EDT   49.57  49.61   18  114   24  51.8  52.2 1013.0 -9.9 -9.999  90.1 -99.99 -9.99
2019/10/21 12:00 EDT   49.88  49.92   17  116   23  52.0  52.2 1013.0 -9.9 -9.999  90.3 -99.99 -9.99
2019/10/21 12:06 EDT   50.20  50.24   15  115   20  52.5  52.2 1012.8 -9.9 -9.999  89.6 -99.99 -9.99
2019/10/21 12:12 EDT   50.43  50.47   14  113   19  52.3  52.2 1012.7 -9.9 -9.999  89.5 -99.99 -9.99
2019/10/21 12:18 EDT   50.63  50.67   16  114   18  52.3  52.2 1012.5 -9.9 -9.999  89.8 -99.99 -9.99
2019/10/21 12:24 EDT   50.43  50.51   17  113   24  52.5  52.2 1012.5 -9.9 -9.999  89.4 -99.99 -9.99
2019/10/21 12:30 EDT   50.28  50.31   18  111   30  53.1  52.2 1012.3 -9.9 -9.999  88.3 -99.99 -9.99
2019/10/21 12:36 EDT   50.28  50.31   15  125   22  53.1  52.2 1012.2 -9.9 -9.999  88.7 -99.99 -9.99
2019/10/21 12:42 EDT   50.55  50.59   16  116   24  53.2  52.2 1012.0 -9.9 -9.999  88.0 -99.99 -9.99
2019/10/21 12:48 EDT   50.63  50.67   19  113   24  53.2  52.2 1011.8 -9.9 -9.999  87.8 -99.99 -9.99
2019/10/21 12:54 EDT   50.83  50.87   16  113   21  53.4  52.2 1011.6 -9.9 -9.999  87.5 -99.99 -9.99
2019/10/21 13:00 EDT   50.59  50.67   17  111   24  53.6  52.2 1011.5 -9.9 -9.999  86.8 -99.99 -9.99
2019/10/21 13:06 EDT   50.71  50.79   18  112   24  53.6  52.2 1011.4 -9.9 -9.999  86.6 -99.99 -9.99
2019/10/21 13:12 EDT   50.83  50.87   16  110   21  53.8  52.2 1011.0 -9.9 -9.999  86.2 -99.99 -9.99
2019/10/21 13:18 EDT   50.63  50.71   18  109   23  54.0  52.2 1010.8 -9.9 -9.999  85.8 -99.99 -9.99
2019/10/21 13:24 EDT   50.98  51.02   16  115   24  54.1  52.2 1010.7 -9.9 -9.999  85.4 -99.99 -9.99
2019/10/21 13:30 EDT   50.94  50.98   20  107   24  54.3  52.2 1010.5 -9.9 -9.999  83.6 -99.99 -9.99
2019/10/21 13:36 EDT   51.46  51.50   19  109   24  54.5  52.2 1010.4 -9.9 -9.999  83.3 -99.99 -9.99
2019/10/21 13:42 EDT   51.18  51.22   17  113   22  54.7  52.2 1010.3 -9.9 -9.999  82.8 -99.99 -9.99
2019/10/21 13:48 EDT   50.83  50.87   19  114   23  54.7  52.2 1010.1 -9.9 -9.999  82.7 -99.99 -9.99
2019/10/21 13:54 EDT   50.71  50.75   18  112   26  54.7  52.2 1009.8 -9.9 -9.999  82.6 -99.99 -9.99
2019/10/21 14:00 EDT   50.98  51.02   21  117   25  54.5  52.2 1009.7 -9.9 -9.999  83.2 -99.99 -9.99
2019/10/21 14:06 EDT   50.94  50.98   19  111   32  54.7  52.2 1009.5 -9.9 -9.999  83.0 -99.99 -9.99
2019/10/21 14:12 EDT   51.14  51.18   20  121   30  54.7  52.2 1009.3 -9.9 -9.999  82.6 -99.99 -9.99
2019/10/21 14:18 EDT   51.06  51.10   22  116   29  54.7  52.2 1009.1 -9.9 -9.999  82.8 -99.99 -9.99
2019/10/21 14:24 EDT   51.10  51.14   19  114   33  54.7  52.2 1008.9 -9.9 -9.999  82.9 -99.99 -9.99
2019/10/21 14:30 EDT   50.83  50.87   25  114   30  54.9  52.2 1008.8 -9.9 -9.999  81.8 -99.99 -9.99
2019/10/21 14:36 EDT   50.67  50.75   23  115   31  54.9  52.2 1008.7 -9.9 -9.999  82.1 -99.99 -9.99
2019/10/21 14:42 EDT   50.83  50.87   21  115   27  54.7  52.2 1008.6 -9.9 -9.999  83.0 -99.99 -9.99
2019/10/21 14:48 EDT   50.94  50.98   22  116   28  55.0  52.2 1008.3 -9.9 -9.999  82.0 -99.99 -9.99
2019/10/21 14:54 EDT   50.67  50.75   20  125   26  55.0  52.2 1008.3 -9.9 -9.999  82.2 -99.99 -9.99
2019/10/21 15:00 EDT   50.55  50.59   25  122   29  55.2  52.2 1008.2 -9.9 -9.999  81.3 -99.99 -9.99
2019/10/21 15:06 EDT   50.59  50.63   23  119   35  54.7  52.2 1008.1 -9.9 -9.999  83.2 -99.99 -9.99
2019/10/21 15:12 EDT   50.51  50.55   21  119   30  55.0  52.2 1007.9 -9.9 -9.999  82.8 -99.99 -9.99
2019/10/21 15:18 EDT   50.43  50.47   23  113   29  55.0  52.2 1007.8 -9.9 -9.999  82.4 -99.99 -9.99
2019/10/21 15:24 EDT   50.16  50.20   27  120   33  54.9  52.2 1007.6 -9.9 -9.999  82.2 -99.99 -9.99
2019/10/21 15:30 EDT   49.96  50.00   24  118   33  54.9  52.2 1007.3 -9.9 -9.999  79.7 -99.99 -9.99
2019/10/21 15:36 EDT   50.20  50.24   25  122   33  55.0  52.2 1007.1 -9.9 -9.999  81.7 -99.99 -9.99
2019/10/21 15:42 EDT   50.47  50.51   24  120   31  54.9  52.2 1007.1 -9.9 -9.999  82.3 -99.99 -9.99
2019/10/21 15:48 EDT   50.28  50.31   23  120   30  55.0  52.2 1006.9 -9.9 -9.999  82.4 -99.99 -9.99
2019/10/21 15:54 EDT   50.39  50.43   26  120   33  55.0  52.2 1007.0 -9.9 -9.999  81.6 -99.99 -9.99
2019/10/21 16:00 EDT   50.67  50.75   26  123   37  54.7  52.2 1007.1 -9.9 -9.999  84.5 -99.99 -9.99
2019/10/21 16:06 EDT   50.43  50.47   27  120   33  54.9  52.2 1007.1 -9.9 -9.999  83.5 -99.99 -9.99
2019/10/21 16:12 EDT   50.59  50.63   24  122   33  54.3  52.2 1007.0 -9.9 -9.999  87.3 -99.99 -9.99
2019/10/21 16:18 EDT   50.39  50.43   21  121   30  54.1  52.2 1007.0 -9.9 -9.999  87.2 -99.99 -9.99
2019/10/21 16:24 EDT   50.28  50.31   23  125   29  54.3  52.2 1006.7 -9.9 -9.999  86.6 -99.99 -9.99
2019/10/21 16:30 EDT   50.35  50.39   22  116   31  54.1  52.2 1006.4 -9.9 -9.999  87.0 -99.99 -9.99
2019/10/21 16:36 EDT   50.63  50.71   20  120   30  54.1  52.2 1006.3 -9.9 -9.999  87.4 -99.99 -9.99
2019/10/21 16:42 EDT   50.94  50.98   24  115   37  54.5  52.2 1006.0 -9.9 -9.999  86.2 -99.99 -9.99
2019/10/21 16:48 EDT   50.55  50.63   23  119   31  54.0  52.2 1006.0 -9.9 -9.999  89.1 -99.99 -9.99
2019/10/21 16:54 EDT   50.59  50.63   28  114   37  54.0  52.2 1005.6 -9.9 -9.999  89.8 -99.99 -9.99
2019/10/21 17:00 EDT   50.67  50.71   30  114   36  54.0  52.2 1005.2 -9.9 -9.999  92.7 -99.99 -9.99
2019/10/21 17:06 EDT   50.31  50.31   24  123   33  53.6  52.2 1005.2 -9.9 -9.999  93.4 -99.99 -9.99
2019/10/21 17:12 EDT   51.06  51.10   28  120   35  54.1  52.2 1004.9 -9.9 -9.999  90.5 -99.99 -9.99
2019/10/21 17:18 EDT   51.38  51.42   27  117   32  53.8  52.2 1004.6 -9.9 -9.999  92.0 -99.99 -9.99
2019/10/21 17:24 EDT   51.42  51.46   26  121   37  53.6  52.2 1004.4 -9.9 -9.999  93.4 -99.99 -9.99
2019/10/21 17:30 EDT   51.42  51.46   28  119   38  54.0  52.2 1004.6 -9.9 -9.999  91.6 -99.99 -9.99
2019/10/21 17:36 EDT   51.10  51.14   23  120   35  53.4  52.2 1004.6 -9.9 -9.999  93.4 -99.99 -9.99
2019/10/21 17:42 EDT   50.83  50.91   28  118   35  53.8  52.2 1004.4 -9.9 -9.999  92.6 -99.99 -9.99
2019/10/21 17:48 EDT   50.87  50.91   24  120   36  53.2  52.2 1004.2 -9.9 -9.999  95.7 -99.99 -9.99
2019/10/21 17:54 EDT   51.14  51.18   29  114   34  53.2  52.2 1003.9 -9.9 -9.999  95.7 -99.99 -9.99
2019/10/21 18:00 EDT   50.83  50.87   23  116   35  52.9  52.2 1003.9 -9.9 -9.999  95.8 -99.99 -9.99
2019/10/21 18:06 EDT   51.54  51.57   24  117   32  53.1  52.2 1003.7 -9.9 -9.999  96.0 -99.99 -9.99
2019/10/21 18:12 EDT   51.38  51.42   24  115   33  53.4  52.2 1003.5 -9.9 -9.999  94.0 -99.99 -9.99
2019/10/21 18:18 EDT   51.69  51.73   25  113   32  53.4  52.2 1003.6 -9.9 -9.999  93.4 -99.99 -9.99
2019/10/21 18:24 EDT   51.77  51.81   25  119   38  53.4  52.2 1003.6 -9.9 -9.999  94.0 -99.99 -9.99
2019/10/21 18:30 EDT   51.34  51.38   26  115   38  53.2  52.2 1003.5 -9.9 -9.999  94.6 -99.99 -9.99
2019/10/21 18:36 EDT   51.61  51.65   22  113   33  52.9  52.2 1003.4 -9.9 -9.999  95.8 -99.99 -9.99
2019/10/21 18:42 EDT   51.22  51.26   23  115   32  53.1  52.2 1003.5 -9.9 -9.999  95.7 -99.99 -9.99
2019/10/21 18:48 EDT   51.38  51.42   23  119   32  53.1  52.2 1003.4 -9.9 -9.999  96.1 -99.99 -9.99
2019/10/21 18:54 EDT   51.81  51.85   23  126   34  53.4  52.2 1003.9 -9.9 -9.999  94.4 -99.99 -9.99
2019/10/21 19:00 EDT   51.77  51.81   25  126   33  53.6  52.2 1004.1 -9.9 -9.999  95.3 -99.99 -9.99
2019/10/21 19:06 EDT   51.30  51.34   25  123   34  53.6  52.0 1003.8 -9.9 -9.999  97.2 -99.99 -9.99
2019/10/21 19:12 EDT   51.18  51.22   24  122   36  53.6  52.0 1003.7 -9.9 -9.999  95.2 -99.99 -9.99
2019/10/21 19:18 EDT   51.14  51.18   29  121   37  53.8  52.0 1003.5 -9.9 -9.999  93.3 -99.99 -9.99
2019/10/21 19:24 EDT   51.10  51.14   27  118   34  54.0  52.2 1003.4 -9.9 -9.999  91.7 -99.99 -9.99
2019/10/21 19:30 EDT   51.69  51.73   27  121   35  54.0  52.2 1003.4 -9.9 -9.999  90.4 -99.99 -9.99
2019/10/21 19:36 EDT   51.38  51.42   28  120   35  54.1  52.2 1003.2 -9.9 -9.999  89.9 -99.99 -9.99
2019/10/21 19:42 EDT   51.30  51.34   28  125   40  54.1  52.0 1003.2 -9.9 -9.999  89.5 -99.99 -9.99
2019/10/21 19:48 EDT   51.30  51.34   30  122   35  53.2  52.0 1002.9 -9.9 -9.999  99.7 -99.99 -9.99
2019/10/21 19:54 EDT   51.65  51.65   27  132   37  53.1  52.0 1002.9 -9.9 -9.999 100.0 -99.99 -9.99
2019/10/21 20:00 EDT   51.42  51.46   29  126   39  53.4  52.2 1003.1 -9.9 -9.999  98.7 -99.99 -9.99
2019/10/21 20:06 EDT   51.57  51.61   29  128   41  53.1  52.0 1003.1 -9.9 -9.999  98.9 -99.99 -9.99
2019/10/21 20:12 EDT   51.30  51.34   30  131   37  53.1  52.0 1002.9 -9.9 -9.999  99.4 -99.99 -9.99
2019/10/21 20:18 EDT   51.89  51.93   26  130   38  52.5  52.0 1002.9 -9.9 -9.999  99.9 -99.99 -9.99
2019/10/21 20:24 EDT   51.65  51.69   29  127   37  52.3  52.0 1002.6 -9.9 -9.999 100.0 -99.99 -9.99
2019/10/21 20:30 EDT   51.14  51.18   23  129   37  52.3  52.0 1002.6 -9.9 -9.999 100.0 -99.99 -9.99
2019/10/21 20:36 EDT   51.30  51.34   25  129   34  52.5  52.0 1002.4 -9.9 -9.999  98.8 -99.99 -9.99
2019/10/21 20:42 EDT   50.98  51.02   25  124   35  52.3  52.0 1002.4 -9.9 -9.999  99.8 -99.99 -9.99
2019/10/21 20:48 EDT   50.79  50.87   27  128   37  51.8  52.0 1002.3 -9.9 -9.999 100.0 -99.99 -9.99
2019/10/21 20:54 EDT   51.02  51.06   27  125   37  50.9  52.2 1002.2 -9.9 -9.999 100.0 -99.99 -9.99
2019/10/21 21:00 EDT   50.94  51.02   27  126   39  50.7  52.2 1002.0 -9.9 -9.999 100.0 -99.99 -9.99
2019/10/21 21:06 EDT   50.79  50.83   30  123   33  51.3  52.2 1002.1 -9.9 -9.999 100.0 -99.99 -9.99
2019/10/21 21:12 EDT   50.98  51.02   30  126   35  51.6  52.0 1002.0 -9.9 -9.999 100.0 -99.99 -9.99
2019/10/21 21:18 EDT   50.91  50.94   27  129   35  51.8  52.0 1001.9 -9.9 -9.999 100.0 -99.99 -9.99
2019/10/21 21:24 EDT   50.75  50.79   25  129   32  52.2  52.0 1001.8 -9.9 -9.999 100.0 -99.99 -9.99
2019/10/21 21:30 EDT   50.98  51.02   24  128   35  52.2  52.0 1001.6 -9.9 -9.999 100.0 -99.99 -9.99
2019/10/21 21:36 EDT   50.39  50.43   24  129   34  52.3  52.2 1001.5 -9.9 -9.999 100.0 -99.99 -9.99
2019/10/21 21:42 EDT   50.24  50.28   27  125   35  52.7  52.2 1001.4 -9.9 -9.999  99.6 -99.99 -9.99
2019/10/21 21:48 EDT   50.59  50.63   24  127   32  52.9  52.0 1001.4 -9.9 -9.999  98.1 -99.99 -9.99
2019/10/21 21:54 EDT   50.63  50.67   23  129   32  52.7  52.2 1001.3 -9.9 -9.999  99.8 -99.99 -9.99
2019/10/21 22:00 EDT   50.59  50.63   25  133   31  52.9  52.0 1001.1 -9.9 -9.999  98.2 -99.99 -9.99
2019/10/21 22:06 EDT   50.98  51.02   24  134   32  53.1  52.0 1001.0 -9.9 -9.999  97.2 -99.99 -9.99
2019/10/21 22:12 EDT   51.42  51.46   24  132   31  52.9  52.0 1001.0 -9.9 -9.999  99.4 -99.99 -9.99
2019/10/21 22:18 EDT   50.91  50.94   24  139   31  52.3  52.0 1001.0 -9.9 -9.999 100.0 -99.99 -9.99
2019/10/21 22:24 EDT   51.02  51.06   22  136   35  52.2  52.0 1000.8 -9.9 -9.999 100.0 -99.99 -9.99
2019/10/21 22:30 EDT   50.91  50.94   24  132   30  52.2  52.0 1000.7 -9.9 -9.999 100.0 -99.99 -9.99
2019/10/21 22:36 EDT   50.55  50.59   28  134   32  52.5  52.0 1000.5 -9.9 -9.999 100.0 -99.99 -9.99
2019/10/21 22:42 EDT   51.10  51.14   21  143   31  52.2  52.0 1000.9 -9.9 -9.999 100.0 -99.99 -9.99
2019/10/21 22:48 EDT   51.30  51.34   26  136   34  52.5  52.0 1000.9 -9.9 -9.999 100.0 -99.99 -9.99
2019/10/21 22:54 EDT   51.42  51.46   27  143   35  52.3  52.0 1000.8 -9.9 -9.999 100.0 -99.99 -9.99
2019/10/21 23:00 EDT   51.18  51.22   24  141   31  52.5  52.0 1000.7 -9.9 -9.999 100.0 -99.99 -9.99
2019/10/21 23:06 EDT   51.02  51.06   22  138   30  52.3  52.0 1000.4 -9.9 -9.999 100.0 -99.99 -9.99
2019/10/21 23:12 EDT   50.31  50.35   21  136   30  52.2  52.0 1000.3 -9.9 -9.999 100.0 -99.99 -9.99
2019/10/21 23:18 EDT   50.39  50.43   22  133   27  52.3  52.0 1000.1 -9.9 -9.999 100.0 -99.99 -9.99
2019/10/21 23:24 EDT   50.55  50.59   18  145   27  52.3  52.0 1000.2 -9.9 -9.999 100.0 -99.99 -9.99
2019/10/21 23:30 EDT   50.51  50.55   20  144   28  52.5  52.0 1000.0 -9.9 -9.999 100.0 -99.99 -9.99
2019/10/21 23:36 EDT   50.59  50.63   21  140   27  52.7  52.0 1000.0 -9.9 -9.999 100.0 -99.99 -9.99
2019/10/21 23:42 EDT   50.47  50.51   20  143   29  52.7  52.0  999.8 -9.9 -9.999 100.0 -99.99 -9.99
2019/10/21 23:48 EDT   49.92  50.00   22  142   28  52.5  52.0  999.7 -9.9 -9.999 100.0 -99.99 -9.99
2019/10/21 23:54 EDT   49.84  49.92   22  128   28  52.7  52.0  998.7 -9.9 -9.999 100.0 -99.99 -9.99
2019/10/22 00:00 EDT   49.76  49.80   22  130   30  52.7  52.0  998.6 -9.9 -9.999 100.0 -99.99 -9.99
2019/10/22 00:06 EDT   50.43  50.47   23  128   27  52.9  52.0  998.4 -9.9 -9.999 100.0 -99.99 -9.99
2019/10/22 00:12 EDT   49.84  49.88   22  127   28  52.9  52.0  998.5 -9.9 -9.999 100.0 -99.99 -9.99
2019/10/22 00:18 EDT   51.02  51.06   18  144   28  52.9  52.0  999.1 -9.9 -9.999 100.0 -99.99 -9.99
2019/10/22 00:24 EDT   49.69  49.76   19  141   26  52.7  52.0  999.3 -9.9 -9.999 100.0 -99.99 -9.99
2019/10/22 00:30 EDT   49.72  49.76   18  138   23  52.9  52.0  999.1 -9.9 -9.999 100.0 -99.99 -9.99
2019/10/22 00:36 EDT   49.09  49.13   19  137   25  52.9  52.0  999.1 -9.9 -9.999 100.0 -99.99 -9.99
2019/10/22 00:42 EDT   49.29  49.37   20  134   25  53.1  52.0  998.9 -9.9 -9.999 100.0 -99.99 -9.99
2019/10/22 00:48 EDT   49.57  49.65   19  135   24  52.9  52.0  999.0 -9.9 -9.999 100.0 -99.99 -9.99
2019/10/22 00:54 EDT   49.84  49.88   19  136   26  52.9  52.0  999.0 -9.9 -9.999 100.0 -99.99 -9.99
2019/10/22 01:00 EDT   49.65  49.69   20  139   25  52.9  52.0  998.9 -9.9 -9.999 100.0 -99.99 -9.99
2019/10/22 01:06 EDT   49.57  49.61   19  141   23  52.9  52.0  998.9 -9.9 -9.999 100.0 -99.99 -9.99
2019/10/22 01:12 EDT   49.76  49.80   18  145   24  52.9  52.0  998.7 -9.9 -9.999 100.0 -99.99 -9.99
2019/10/22 01:18 EDT   49.72  49.80   19  149   25  52.7  52.0  998.7 -9.9 -9.999 100.0 -99.99 -9.99
2019/10/22 01:24 EDT   50.39  50.43   22  150   25  52.7  52.0  998.7 -9.9 -9.999 100.0 -99.99 -9.99
2019/10/22 01:30 EDT   50.20  50.24   21  166   28  52.0  52.0  998.8 -9.9 -9.999 100.0 -99.99 -9.99
2019/10/22 01:36 EDT   49.76  49.84   23  155   27  52.0  52.0  998.9 -9.9 -9.999 100.0 -99.99 -9.99
2019/10/22 01:42 EDT   49.92  49.96   16  161   24  52.2  52.0  998.9 -9.9 -9.999 100.0 -99.99 -9.99
2019/10/22 01:48 EDT   49.57  49.65   16  161   20  52.5  52.0  998.8 -9.9 -9.999 100.0 -99.99 -9.99
2019/10/22 01:54 EDT   49.88  49.96   16  153   20  52.7  52.0  998.6 -9.9 -9.999 100.0 -99.99 -9.99
2019/10/22 02:00 EDT   49.53  49.57   15  151   18  52.7  52.0  998.8 -9.9 -9.999 100.0 -99.99 -9.99
2019/10/22 02:06 EDT   49.02  49.06   16  150   20  52.9  52.0  998.7 -9.9 -9.999 100.0 -99.99 -9.99
2019/10/22 02:12 EDT   48.98  49.06   15  148   19  52.7  52.0  998.7 -9.9 -9.999 100.0 -99.99 -9.99
2019/10/22 02:18 EDT   48.70  48.78   16  149   19  52.7  52.0  998.6 -9.9 -9.999 100.0 -99.99 -9.99
2019/10/22 02:24 EDT   48.62  48.70   15  147   18  52.7  52.0  998.5 -9.9 -9.999 100.0 -99.99 -9.99
2019/10/22 02:30 EDT   48.54  48.58   15  145   18  52.7  52.0  998.3 -9.9 -9.999 100.0 -99.99 -9.99
2019/10/22 02:36 EDT   48.70  48.78   14  145   17  52.5  52.0  998.1 -9.9 -9.999 100.0 -99.99 -9.99
2019/10/22 02:42 EDT   48.86  48.90   14  148   17  52.5  52.0  998.1 -9.9 -9.999 100.0 -99.99 -9.99
2019/10/22 02:48 EDT   48.94  48.98   13  145   17  52.5  52.0  998.0 -9.9 -9.999 100.0 -99.99 -9.99
2019/10/22 02:54 EDT   48.74  48.78   13  147   15  52.5  52.0  997.9 -9.9 -9.999 100.0 -99.99 -9.99
2019/10/22 03:00 EDT   48.27  48.35   13  152   16  52.5  52.0  998.0 -9.9 -9.999 100.0 -99.99 -9.99
2019/10/22 03:06 EDT   48.31  48.35   14  149   17  52.7  52.0  997.9 -9.9 -9.999 100.0 -99.99 -9.99
2019/10/22 03:12 EDT   48.35  48.39   16  149   19  52.7  52.0  997.9 -9.9 -9.999 100.0 -99.99 -9.99
2019/10/22 03:18 EDT   48.70  48.74   16  151   21  52.9  52.0  997.9 -9.9 -9.999 100.0 -99.99 -9.99
2019/10/22 03:24 EDT   49.13  49.21   17  152   20  53.1  52.0  997.9 -9.9 -9.999 100.0 -99.99 -9.99
2019/10/22 03:30 EDT   48.82  48.86   16  148   21  53.1  52.0  997.7 -9.9 -9.999 100.0 -99.99 -9.99
2019/10/22 03:36 EDT   48.43  48.50   16  150   19  52.7  52.0  997.6 -9.9 -9.999 100.0 -99.99 -9.99
2019/10/22 03:42 EDT   47.95  48.03   17  146   23  53.1  52.0  997.5 -9.9 -9.999 100.0 -99.99 -9.99
2019/10/22 03:48 EDT   48.03  48.11   17  153   20  52.9  52.0  997.6 -9.9 -9.999 100.0 -99.99 -9.99
2019/10/22 03:54 EDT   48.62  48.70   17  152   20  52.7  52.0  997.5 -9.9 -9.999 100.0 -99.99 -9.99
2019/10/22 04:00 EDT   48.43  48.50   16  157   20  52.9  52.0  997.6 -9.9 -9.999 100.0 -99.99 -9.99
2019/10/22 04:06 EDT   48.39  48.43   15  162   19  52.9  52.0  997.7 -9.9 -9.999 100.0 -99.99 -9.99
2019/10/22 04:12 EDT   47.68  47.76   16  166   19  53.1  52.0  997.6 -9.9 -9.999 100.0 -99.99 -9.99
2019/10/22 04:18 EDT   47.48  47.52   16  166   20  53.1  52.0  997.6 -9.9 -9.999 100.0 -99.99 -9.99
2019/10/22 04:24 EDT   47.48  47.52   18  172   22  53.6  52.0  997.5 -9.9 -9.999 100.0 -99.99 -9.99
2019/10/22 04:30 EDT   47.28  47.32   18  171   22  53.6  52.0  997.4 -9.9 -9.999 100.0 -99.99 -9.99
2019/10/22 04:36 EDT   46.77  46.85   18  172   21  53.8  52.0  997.5 -9.9 -9.999  99.9 -99.99 -9.99
2019/10/22 04:42 EDT   46.85  46.93   18  173   22  53.8  52.0  997.5 -9.9 -9.999  98.2 -99.99 -9.99
2019/10/22 04:48 EDT   46.69  46.77   19  175   21  53.8  52.0  997.5 -9.9 -9.999  96.2 -99.99 -9.99
2019/10/22 04:54 EDT   46.89  46.97   18  181   21  53.8  52.0  997.6 -9.9 -9.999  95.0 -99.99 -9.99
2019/10/22 05:00 EDT   46.97  47.01   18  181   20  53.8  52.0  997.7 -9.9 -9.999  94.2 -99.99 -9.99
2019/10/22 05:06 EDT   47.17  47.24   17  181   21  53.8  52.0  997.6 -9.9 -9.999  91.3 -99.99 -9.99
2019/10/22 05:12 EDT   46.73  46.81   13  186   20  53.4  52.0  997.8 -9.9 -9.999  92.1 -99.99 -9.99
2019/10/22 05:18 EDT   46.42  46.50   14  188   17  53.6  52.0  997.9 -9.9 -9.999  91.6 -99.99 -9.99
2019/10/22 05:24 EDT   46.34  46.42   14  192   19  53.6  52.0  997.9 -9.9 -9.999  88.8 -99.99 -9.99
2019/10/22 05:30 EDT   46.02  46.10    9  210   17  52.9  52.0  998.1 -9.9 -9.999  90.3 -99.99 -9.99
2019/10/22 05:36 EDT   45.63  45.71    5  210   12  52.3  52.0  998.0 -9.9 -9.999  93.0 -99.99 -9.99
2019/10/22 05:42 EDT   45.63  45.79    8  210   14  52.2  52.0  998.0 -9.9 -9.999  83.8 -99.99 -9.99
2019/10/22 05:48 EDT   45.75  45.94   10  208   14  52.0  52.0  998.1 -9.9 -9.999  84.1 -99.99 -9.99
2019/10/22 05:54 EDT   45.91  46.14    8  198   13  51.8  52.0  998.2 -9.9 -9.999  86.4 -99.99 -9.99
2019/10/22 06:00 EDT   45.91  46.10    8  198   13  51.8  52.0  998.0 -9.9 -9.999  82.2 -99.99 -9.99
2019/10/22 06:06 EDT   45.87  46.06    8  201   16  51.4  52.0  998.1 -9.9 -9.999  81.4 -99.99 -9.99
2019/10/22 06:12 EDT   45.63  45.79    6  204   13  51.3  52.0  998.1 -9.9 -9.999  82.8 -99.99 -9.99
2019/10/22 06:18 EDT   45.67  45.83    7  203   10  51.3  52.0  998.0 -9.9 -9.999  83.7 -99.99 -9.99
2019/10/22 06:24 EDT   45.87  46.06    9  195   12  51.6  52.0  997.9 -9.9 -9.999  83.7 -99.99 -9.99
2019/10/22 06:30 EDT   45.75  45.91    9  193   12  51.8  52.0  997.8 -9.9 -9.999  82.2 -99.99 -9.99
2019/10/22 06:36 EDT   45.79  45.94    8  194   12  51.6  52.0  997.8 -9.9 -9.999  83.0 -99.99 -9.99
2019/10/22 06:42 EDT   45.55  45.67   12  182   16  52.0  52.0  997.7 -9.9 -9.999  85.3 -99.99 -9.99
2019/10/22 06:48 EDT   45.43  45.51   13  183   17  52.0  52.0  997.7 -9.9 -9.999  85.6 -99.99 -9.99
2019/10/22 06:54 EDT   45.28  45.35   14  178   18  52.0  52.0  997.6 -9.9 -9.999  86.1 -99.99 -9.99
2019/10/22 07:00 EDT   45.51  45.59   15  175   19  52.0  52.0  997.6 -9.9 -9.999  84.7 -99.99 -9.99
2019/10/22 07:06 EDT   45.87  46.06   14  173   18  51.8  52.0  997.5 -9.9 -9.999  85.8 -99.99 -9.99
2019/10/22 07:12 EDT   45.87  46.06   15  173   19  52.0  52.0  997.4 -9.9 -9.999  84.9 -99.99 -9.99
2019/10/22 07:18 EDT   45.71  45.83   17  172   20  52.0  52.0  997.3 -9.9 -9.999  83.8 -99.99 -9.99
2019/10/22 07:24 EDT   45.59  45.71   17  171   21  52.0  52.0  997.2 -9.9 -9.999  83.3 -99.99 -9.99
2019/10/22 07:30 EDT   45.35  45.43   17  167   19  51.6  52.0  997.1 -9.9 -9.999  84.4 -99.99 -9.99
2019/10/22 07:36 EDT   45.55  45.67   18  169   21  51.6  52.0  997.1 -9.9 -9.999  83.9 -99.99 -9.99
2019/10/22 07:42 EDT   45.59  45.71   17  167   20  51.6  52.0  997.0 -9.9 -9.999  83.8 -99.99 -9.99
2019/10/22 07:48 EDT   45.47  45.55   19  170   23  51.6  52.0  996.8 -9.9 -9.999  81.7 -99.99 -9.99
2019/10/22 07:54 EDT   45.71  45.87   18  172   21  51.6  52.0  996.7 -9.9 -9.999  82.4 -99.99 -9.99
2019/10/22 08:00 EDT   45.87  46.02   20  172   24  51.8  52.0  996.6 -9.9 -9.999  81.1 -99.99 -9.99
2019/10/22 08:06 EDT   45.91  46.10   20  171   23  51.6  52.0  996.4 -9.9 -9.999  81.9 -99.99 -9.99
2019/10/22 08:12 EDT   46.50  46.57   20  166   23  51.4  52.0  996.4 -9.9 -9.999  83.0 -99.99 -9.99
2019/10/22 08:18 EDT   46.89  46.93   21  171   25  51.4  52.0  996.4 -9.9 -9.999  82.3 -99.99 -9.99
2019/10/22 08:24 EDT   46.85  46.93   20  171   23  51.4  52.0  996.4 -9.9 -9.999  82.3 -99.99 -9.99
2019/10/22 08:30 EDT   46.89  46.97   21  169   25  51.4  52.0  996.4 -9.9 -9.999  81.6 -99.99 -9.99
2019/10/22 08:36 EDT   46.85  46.93   19  166   24  51.4  52.0  996.5 -9.9 -9.999  83.0 -99.99 -9.99
2019/10/22 08:42 EDT   46.85  46.89   20  166   23  51.4  52.0  996.6 -9.9 -9.999  84.0 -99.99 -9.99
2019/10/22 08:48 EDT   47.28  47.32   23  167   27  51.4  52.0  996.5 -9.9 -9.999  82.3 -99.99 -9.99
2019/10/22 08:54 EDT   47.56  47.60   21  168   25  51.3  52.0  996.6 -9.9 -9.999  84.4 -99.99 -9.99
2019/10/22 09:00 EDT   47.52  47.60   21  168   25  51.3  52.0  996.6 -9.9 -9.999  84.3 -99.99 -9.99
2019/10/22 09:06 EDT   47.56  47.60   22  167   27  51.3  52.0  996.6 -9.9 -9.999  83.9 -99.99 -9.99
2019/10/22 09:12 EDT   47.80  47.83   23  168   27  51.4  52.0  996.6 -9.9 -9.999  80.9 -99.99 -9.99
2019/10/22 09:18 EDT   47.64  47.72   24  169   27  51.3  52.0  996.7 -9.9 -9.999  81.1 -99.99 -9.99
2019/10/22 09:24 EDT   47.83  47.87   23  169   27  51.4  52.0  996.6 -9.9 -9.999  80.7 -99.99 -9.99
2019/10/22 09:30 EDT   48.11  48.19   23  169   27  51.3  52.0  996.5 -9.9 -9.999  81.4 -99.99 -9.99
2019/10/22 09:36 EDT   48.15  48.23   23  167   29  51.1  52.0  996.4 -9.9 -9.999  82.6 -99.99 -9.99
2019/10/22 09:42 EDT   48.11  48.19   24  166   29  51.1  52.0  996.3 -9.9 -9.999  83.3 -99.99 -9.99
2019/10/22 09:48 EDT   48.50  48.54   26  166   30  51.1  52.0  996.3 -9.9 -9.999  82.9 -99.99 -9.99
2019/10/22 09:54 EDT   48.62  48.70   23  165   29  51.1  52.0  996.3 -9.9 -9.999  84.6 -99.99 -9.99
2019/10/22 10:00 EDT   48.98  49.02   24  166   29  50.9  52.0  996.2 -9.9 -9.999  83.0 -99.99 -9.99
2019/10/22 10:06 EDT   48.82  48.90   25  167   30  51.1  52.0  996.1 -9.9 -9.999  82.7 -99.99 -9.99
2019/10/22 10:12 EDT   48.94  48.98   26  169   30  50.9  52.0  996.0 -9.9 -9.999  82.0 -99.99 -9.99
2019/10/22 10:18 EDT   49.06  49.13   24  171   28  50.9  52.0  996.0 -9.9 -9.999  83.5 -99.99 -9.99
2019/10/22 10:24 EDT   49.17  49.25   24  168   29  50.9  52.0  995.9 -9.9 -9.999  83.6 -99.99 -9.99
2019/10/22 10:30 EDT   49.29  49.33   24  169   29  50.7  52.0  995.8 -9.9 -9.999  83.7 -99.99 -9.99
2019/10/22 10:36 EDT   49.29  49.33   23  167   30  50.7  52.0  995.8 -9.9 -9.999  84.1 -99.99 -9.99
2019/10/22 10:42 EDT   49.06  49.09   23  168   27  50.7  52.0  995.7 -9.9 -9.999  83.4 -99.99 -9.99
2019/10/22 10:48 EDT   49.13  49.17   22  166   26  50.7  52.0  995.7 -9.9 -9.999  84.2 -99.99 -9.99
2019/10/22 10:54 EDT   49.45  49.53   21  169   26  50.7  52.0  995.6 -9.9 -9.999  84.1 -99.99 -9.99
2019/10/22 11:00 EDT   49.53  49.57   22  169   26  50.7  52.0  995.6 -9.9 -9.999  85.0 -99.99 -9.99
2019/10/22 11:06 EDT   49.69  49.72   23  170   27  50.7  52.0  995.4 -9.9 -9.999  83.4 -99.99 -9.99
2019/10/22 11:12 EDT   49.80  49.88   24  167   28  50.7  52.0  995.4 -9.9 -9.999  83.5 -99.99 -9.99
2019/10/22 11:18 EDT   49.69  49.72   22  171   27  50.9  52.0  995.2 -9.9 -9.999  83.5 -99.99 -9.99
2019/10/22 11:24 EDT   49.92  50.00   23  166   28  50.9  52.0  995.1 -9.9 -9.999  83.7 -99.99 -9.99
2019/10/22 11:30 EDT   49.92  49.96   23  167   28  50.9  52.0  995.1 -9.9 -9.999  82.1 -99.99 -9.99
2019/10/22 11:36 EDT   50.00  50.04   24  166   28  51.1  52.0  995.0 -9.9 -9.999  82.1 -99.99 -9.99
2019/10/22 11:42 EDT   50.16  50.20   22  169   28  51.1  52.0  995.1 -9.9 -9.999  82.0 -99.99 -9.99
2019/10/22 11:48 EDT   50.24  50.28   22  168   26  51.3  52.0  995.0 -9.9 -9.999  81.9 -99.99 -9.99
2019/10/22 11:54 EDT   50.47  50.51   20  173   25  51.3  52.0  995.1 -9.9 -9.999  82.5 -99.99 -9.99
2019/10/22 12:00 EDT   50.47  50.51   23  173   25  51.4  52.0  995.0 -9.9 -9.999  81.3 -99.99 -9.99
2019/10/22 12:06 EDT   50.55  50.59   20  173   27  51.6  52.0  995.0 -9.9 -9.999  80.9 -99.99 -9.99
2019/10/22 12:12 EDT   50.79  50.83   21  172   25  51.6  52.0  995.0 -9.9 -9.999  80.4 -99.99 -9.99
2019/10/22 12:18 EDT   50.94  50.98   21  169   25  51.6  52.0  994.9 -9.9 -9.999  80.0 -99.99 -9.99
2019/10/22 12:24 EDT   50.94  50.98   21  165   25  51.6  52.0  994.9 -9.9 -9.999  81.1 -99.99 -9.99
2019/10/22 12:30 EDT   50.87  50.94   20  168   24  51.8  52.0  994.7 -9.9 -9.999  80.0 -99.99 -9.99
2019/10/22 12:36 EDT   50.98  51.02   22  166   25  51.8  52.0  994.7 -9.9 -9.999  79.9 -99.99 -9.99
2019/10/22 12:42 EDT   51.26  51.30   18  169   23  51.8  52.0  994.7 -9.9 -9.999  82.8 -99.99 -9.99
2019/10/22 12:48 EDT   51.30  51.34   20  170   23  52.2  52.0  994.7 -9.9 -9.999  79.6 -99.99 -9.99
2019/10/22 12:54 EDT   51.54  51.57   19  180   25  52.5  52.0  994.6 -9.9 -9.999  77.2 -99.99 -9.99
2019/10/22 13:00 EDT   51.50  51.54   16  188   24  52.3  52.0  994.6 -9.9 -9.999  77.0 -99.99 -9.99
2019/10/22 13:06 EDT   51.46  51.54   20  188   26  52.3  52.0  994.5 -9.9 -9.999  72.7 -99.99 -9.99
2019/10/22 13:12 EDT   51.42  51.46   13  195   23  52.2  52.0  994.5 -9.9 -9.999  73.3 -99.99 -9.99
2019/10/22 13:18 EDT   51.38  51.46   13  193   20  52.0  52.0  994.4 -9.9 -9.999  74.9 -99.99 -9.99
2019/10/22 13:24 EDT   51.38  51.42   13  192   19  52.0  52.0  994.4 -9.9 -9.999  76.2 -99.99 -9.99
2019/10/22 13:30 EDT   51.50  51.54   12  192   17  52.0  52.0  994.3 -9.9 -9.999  77.8 -99.99 -9.99
2019/10/22 13:36 EDT   51.65  51.69   14  185   22  52.2  52.0  994.2 -9.9 -9.999  78.0 -99.99 -9.99
2019/10/22 13:42 EDT   51.81  51.85   19  188   25  52.3  52.0  994.2 -9.9 -9.999  75.5 -99.99 -9.99
2019/10/22 13:48 EDT   51.73  51.77   20  189   26  52.2  52.0  994.2 -9.9 -9.999  73.8 -99.99 -9.99
2019/10/22 13:54 EDT   51.69  51.77   17  191   30  52.2  52.0  994.2 -9.9 -9.999  73.4 -99.99 -9.99
2019/10/22 14:00 EDT   51.85  51.93   18  188   24  52.0  52.0  994.2 -9.9 -9.999  75.2 -99.99 -9.99
2019/10/22 14:06 EDT   51.85  51.93   19  186   24  52.0  52.0  994.1 -9.9 -9.999  76.9 -99.99 -9.99
2019/10/22 14:12 EDT   51.81  51.89   22  186   29  52.2  52.0  994.0 -9.9 -9.999  73.8 -99.99 -9.99
2019/10/22 14:18 EDT   51.46  51.50   17  188   27  52.2  52.0  994.1 -9.9 -9.999  76.8 -99.99 -9.99
2019/10/22 14:24 EDT   51.54  51.57   16  192   26  52.3  52.0  994.1 -9.9 -9.999  74.6 -99.99 -9.99
2019/10/22 14:30 EDT   51.81  51.85   17  195   28  52.3  52.0  994.0 -9.9 -9.999  74.5 -99.99 -9.99
2019/10/22 14:36 EDT   51.73  51.77   18  188   24  52.2  52.0  994.0 -9.9 -9.999  74.9 -99.99 -9.99
2019/10/22 14:42 EDT   51.54  51.57   22  185   31  51.8  52.0  993.9 -9.9 -9.999  77.6 -99.99 -9.99
2019/10/22 14:48 EDT   51.54  51.57   24  186   33  51.4  52.0  994.0 -9.9 -9.999  77.8 -99.99 -9.99
2019/10/22 14:54 EDT   51.30  51.34   24  186   32  51.3  52.0  994.0 -9.9 -9.999  79.6 -99.99 -9.99
2019/10/22 15:00 EDT   51.46  51.50   27  185   33  51.1  52.0  994.1 -9.9 -9.999  80.9 -99.99 -9.99
2019/10/22 15:06 EDT   51.30  51.34   24  186   30  50.9  52.0  994.1 -9.9 -9.999  81.6 -99.99 -9.99
2019/10/22 15:12 EDT   51.30  51.34   22  188   33  50.9  52.0  994.2 -9.9 -9.999  82.2 -99.99 -9.99
2019/10/22 15:18 EDT  -99.99 -99.99 -999 -999 -999 -99.9 -99.9 -999.9 -9.9 -9.999 -99.9 -99.99 -9.99